DAL174 KMCO-LIMC
Flight info
| Callsign | DAL174 |
|---|---|
| Flight time | 9h 8m |
| Altitude | 37000 |
| Route | FATHE4 VIYAP Q87 JROSS Q135 RAPZZ PRONI PUNGO PHITZ DWSEN KW54A PREPI KB63C MONTK VITOL NANSO N55B RAFIN 4550N 4740N 4730N 4720N 4715N SEPAL UN470 LAPEX GALOF PECNO VALKU TIS MEBAK GIPNO BALSI GIGUS MEDAM LAPRI MOGBO TOP M135 ASTIG |
| Aircraft | A359/H-SDE2E3GHIJ3J4J5LM1ORWXY/LB1D1 |
Departure
| Time | 2026-04-25 12:32 |
|---|---|
| Airport | Orlando International Airport (KMCO) |
Arrival
| Time | 2026-04-25 21:40 |
|---|---|
| Airport | Milan Malpensa International Airport (LIMC) |
| Time | Latitude | Longitude | Altitude | Speed | Heading |
|---|---|---|---|---|---|
| 2026-04-25 11:15 | 28.42857 | -81.30123 | 109 ft | 0 kts | 141° |
| 2026-04-25 11:51 | 28.42838 | -81.30106 | 107 ft | 0 kts | 141° |
| 2026-04-25 11:52 | 28.42848 | -81.30116 | 109 ft | 4 kts | 148° |
| 2026-04-25 11:52 | 28.42852 | -81.30118 | 109 ft | 0 kts | 152° |
| 2026-04-25 12:00 | 28.42882 | -81.30144 | 106 ft | 3 kts | 140° |
| 2026-04-25 12:01 | 28.42895 | -81.30160 | 106 ft | 3 kts | 124° |
| 2026-04-25 12:01 | 28.42905 | -81.30177 | 106 ft | 1 kts | 111° |
| 2026-04-25 12:01 | 28.42910 | -81.30191 | 95 ft | 3 kts | 102° |
| 2026-04-25 12:02 | 28.42911 | -81.30210 | 92 ft | 0 kts | 67° |
| 2026-04-25 12:11 | 28.42912 | -81.30209 | 109 ft | 0 kts | 66° |
| 2026-04-25 12:11 | 28.42914 | -81.30204 | 109 ft | 1 kts | 63° |
| 2026-04-25 12:12 | 28.42922 | -81.30186 | 108 ft | 4 kts | 60° |
| 2026-04-25 12:12 | 28.42930 | -81.30171 | 107 ft | 0 kts | 59° |
| 2026-04-25 12:13 | 28.42931 | -81.30168 | 107 ft | 2 kts | 59° |
| 2026-04-25 12:13 | 28.42945 | -81.30142 | 106 ft | 6 kts | 59° |
| 2026-04-25 12:14 | 28.42971 | -81.30083 | 106 ft | 7 kts | 69° |
| 2026-04-25 12:14 | 28.42977 | -81.30040 | 106 ft | 7 kts | 85° |
| 2026-04-25 12:14 | 28.42965 | -81.29975 | 107 ft | 10 kts | 106° |
| 2026-04-25 12:14 | 28.42958 | -81.29951 | 107 ft | 0 kts | 110° |
| 2026-04-25 12:15 | 28.42956 | -81.29944 | 107 ft | 2 kts | 110° |
| 2026-04-25 12:16 | 28.42944 | -81.29913 | 106 ft | 7 kts | 116° |
| 2026-04-25 12:16 | 28.42935 | -81.29896 | 106 ft | 0 kts | 122° |
| 2026-04-25 12:16 | 28.42934 | -81.29895 | 106 ft | 0 kts | 122° |
| 2026-04-25 12:17 | 28.42934 | -81.29894 | 106 ft | 1 kts | 122° |
| 2026-04-25 12:17 | 28.42925 | -81.29876 | 107 ft | 5 kts | 116° |
| 2026-04-25 12:17 | 28.42905 | -81.29825 | 105 ft | 9 kts | 124° |
| 2026-04-25 12:17 | 28.42845 | -81.29799 | 107 ft | 10 kts | 178° |
| 2026-04-25 12:18 | 28.42760 | -81.29797 | 107 ft | 14 kts | 178° |
| 2026-04-25 12:18 | 28.42651 | -81.29796 | 107 ft | 17 kts | 180° |
| 2026-04-25 12:18 | 28.42533 | -81.29795 | 107 ft | 15 kts | 179° |
| 2026-04-25 12:18 | 28.42517 | -81.29795 | 107 ft | 1 kts | 179° |
| 2026-04-25 12:19 | 28.42465 | -81.29794 | 107 ft | 8 kts | 179° |
| 2026-04-25 12:19 | 28.42377 | -81.29770 | 108 ft | 10 kts | 133° |
| 2026-04-25 12:19 | 28.42364 | -81.29709 | 106 ft | 9 kts | 89° |
| 2026-04-25 12:20 | 28.42364 | -81.29697 | 107 ft | 0 kts | 89° |
| 2026-04-25 12:21 | 28.42364 | -81.29695 | 107 ft | 0 kts | 89° |
| 2026-04-25 12:22 | 28.42364 | -81.29679 | 107 ft | 5 kts | 89° |
| 2026-04-25 12:22 | 28.42365 | -81.29609 | 106 ft | 12 kts | 90° |
| 2026-04-25 12:22 | 28.42366 | -81.29490 | 106 ft | 17 kts | 89° |
| 2026-04-25 12:22 | 28.42367 | -81.29351 | 108 ft | 19 kts | 89° |
| 2026-04-25 12:23 | 28.42347 | -81.29268 | 109 ft | 9 kts | 133° |
| 2026-04-25 12:23 | 28.42297 | -81.29217 | 110 ft | 10 kts | 121° |
| 2026-04-25 12:23 | 28.42292 | -81.29140 | 111 ft | 12 kts | 84° |
| 2026-04-25 12:23 | 28.42313 | -81.29034 | 111 ft | 16 kts | 71° |
| 2026-04-25 12:24 | 28.42339 | -81.28949 | 112 ft | 18 kts | 71° |
| 2026-04-25 12:24 | 28.42386 | -81.28796 | 111 ft | 22 kts | 71° |
| 2026-04-25 12:24 | 28.42443 | -81.28612 | 109 ft | 26 kts | 71° |
| 2026-04-25 12:24 | 28.42486 | -81.28474 | 109 ft | 0 kts | 71° |
| 2026-04-25 12:25 | 28.42489 | -81.28461 | 111 ft | 4 kts | 71° |
| 2026-04-25 12:25 | 28.42507 | -81.28410 | 111 ft | 9 kts | 65° |
| 2026-04-25 12:25 | 28.42559 | -81.28367 | 111 ft | 11 kts | 11° |
| 2026-04-25 12:25 | 28.42646 | -81.28365 | 112 ft | 15 kts | 359° |
| 2026-04-25 12:26 | 28.42770 | -81.28366 | 110 ft | 21 kts | 359° |
| 2026-04-25 12:26 | 28.42939 | -81.28368 | 106 ft | 27 kts | 359° |
| 2026-04-25 12:26 | 28.43108 | -81.28370 | 106 ft | 23 kts | 359° |
| 2026-04-25 12:26 | 28.43285 | -81.28372 | 104 ft | 27 kts | 359° |
| 2026-04-25 12:27 | 28.43448 | -81.28373 | 107 ft | 24 kts | 359° |
| 2026-04-25 12:27 | 28.43621 | -81.28375 | 109 ft | 26 kts | 359° |
| 2026-04-25 12:27 | 28.43754 | -81.28377 | 109 ft | 11 kts | 359° |
| 2026-04-25 12:27 | 28.43844 | -81.28378 | 110 ft | 15 kts | 359° |
| 2026-04-25 12:28 | 28.43959 | -81.28379 | 112 ft | 18 kts | 359° |
| 2026-04-25 12:28 | 28.44100 | -81.28380 | 112 ft | 23 kts | 359° |
| 2026-04-25 12:28 | 28.44264 | -81.28382 | 110 ft | 17 kts | 359° |
| 2026-04-25 12:28 | 28.44326 | -81.28377 | 109 ft | 9 kts | 18° |
| 2026-04-25 12:29 | 28.44340 | -81.28367 | 109 ft | 0 kts | 37° |
| 2026-04-25 12:29 | 28.44348 | -81.28356 | 110 ft | 4 kts | 53° |
| 2026-04-25 12:30 | 28.44356 | -81.28301 | 108 ft | 9 kts | 94° |
| 2026-04-25 12:30 | 28.44315 | -81.28260 | 109 ft | 8 kts | 167° |
| 2026-04-25 12:30 | 28.44284 | -81.28258 | 111 ft | 0 kts | 178° |
| 2026-04-25 12:31 | 28.44236 | -81.28257 | 113 ft | 29 kts | 179° |
| 2026-04-25 12:31 | 28.43820 | -81.28253 | 110 ft | 89 kts | 179° |
| 2026-04-25 12:31 | 28.43019 | -81.28244 | 104 ft | 140 kts | 179° |
| 2026-04-25 12:31 | 28.41926 | -81.28234 | 319 ft | 162 kts | 179° |
| 2026-04-25 12:32 | 28.40826 | -81.28100 | 879 ft | 158 kts | 159° |
| 2026-04-25 12:32 | 28.40043 | -81.27250 | 1325 ft | 166 kts | 116° |
| 2026-04-25 12:32 | 28.39834 | -81.25890 | 1556 ft | 187 kts | 90° |
| 2026-04-25 12:32 | 28.39949 | -81.24341 | 1791 ft | 207 kts | 84° |
| 2026-04-25 12:33 | 28.40150 | -81.22628 | 2000 ft | 231 kts | 83° |
| 2026-04-25 12:33 | 28.40376 | -81.20732 | 2255 ft | 253 kts | 83° |
| 2026-04-25 12:33 | 28.40610 | -81.18708 | 2726 ft | 262 kts | 83° |
| 2026-04-25 12:33 | 28.40844 | -81.16643 | 3385 ft | 263 kts | 83° |
| 2026-04-25 12:34 | 28.41079 | -81.14575 | 4021 ft | 266 kts | 81° |
| 2026-04-25 12:34 | 28.41741 | -81.12650 | 4555 ft | 268 kts | 54° |
| 2026-04-25 12:34 | 28.43142 | -81.11226 | 5190 ft | 268 kts | 29° |
| 2026-04-25 12:34 | 28.44239 | -81.10579 | 5608 ft | 270 kts | 24° |
| 2026-04-25 12:35 | 28.46643 | -81.09879 | 6461 ft | 273 kts | 1° |
| 2026-04-25 12:35 | 28.48506 | -81.10246 | 7132 ft | 273 kts | 340° |
| 2026-04-25 12:35 | 28.50274 | -81.11057 | 7788 ft | 276 kts | 335° |
| 2026-04-25 12:35 | 28.52029 | -81.11958 | 8464 ft | 278 kts | 335° |
| 2026-04-25 12:36 | 28.53788 | -81.12877 | 9191 ft | 279 kts | 334° |
| 2026-04-25 12:36 | 28.55553 | -81.13804 | 9882 ft | 281 kts | 334° |
| 2026-04-25 12:36 | 28.57348 | -81.14747 | 10368 ft | 290 kts | 334° |
| 2026-04-25 12:36 | 28.59236 | -81.15741 | 10622 ft | 308 kts | 334° |
| 2026-04-25 12:37 | 28.61234 | -81.16793 | 10869 ft | 324 kts | 334° |
| 2026-04-25 12:37 | 28.63332 | -81.17897 | 11108 ft | 340 kts | 334° |
| 2026-04-25 12:37 | 28.65526 | -81.19052 | 11347 ft | 355 kts | 334° |
| 2026-04-25 12:37 | 28.67809 | -81.20254 | 11613 ft | 367 kts | 334° |
| 2026-04-25 12:38 | 28.70150 | -81.21487 | 12069 ft | 373 kts | 334° |
| 2026-04-25 12:38 | 28.72516 | -81.22733 | 12604 ft | 376 kts | 334° |
| 2026-04-25 12:38 | 28.74897 | -81.23988 | 13147 ft | 379 kts | 334° |
| 2026-04-25 12:38 | 28.77299 | -81.25256 | 13673 ft | 382 kts | 334° |
| 2026-04-25 12:39 | 28.79717 | -81.26533 | 14136 ft | 385 kts | 334° |
| 2026-04-25 12:39 | 28.82154 | -81.27813 | 14595 ft | 387 kts | 335° |
| 2026-04-25 12:39 | 28.84720 | -81.28778 | 15096 ft | 390 kts | 348° |
| 2026-04-25 12:39 | 28.87422 | -81.29162 | 15556 ft | 393 kts | 353° |
| 2026-04-25 12:40 | 28.90167 | -81.29396 | 15986 ft | 397 kts | 354° |
| 2026-04-25 12:40 | 28.92899 | -81.29615 | 16422 ft | 400 kts | 354° |
| 2026-04-25 12:40 | 28.95726 | -81.29846 | 16891 ft | 403 kts | 354° |
| 2026-04-25 12:40 | 28.98498 | -81.30077 | 17338 ft | 406 kts | 354° |
| 2026-04-25 12:41 | 29.01325 | -81.30338 | 17803 ft | 409 kts | 353° |
| 2026-04-25 12:41 | 29.04167 | -81.30657 | 18268 ft | 412 kts | 352° |
| 2026-04-25 12:41 | 29.07029 | -81.30987 | 18672 ft | 415 kts | 352° |
| 2026-04-25 12:41 | 29.09910 | -81.31314 | 19099 ft | 417 kts | 352° |
| 2026-04-25 12:42 | 29.12804 | -81.31611 | 19537 ft | 420 kts | 354° |
| 2026-04-25 12:42 | 29.14780 | -81.31732 | 19828 ft | 421 kts | 355° |
| 2026-04-25 12:42 | 29.18674 | -81.31930 | 20400 ft | 424 kts | 355° |
| 2026-04-25 12:42 | 29.21629 | -81.32088 | 20828 ft | 427 kts | 355° |
| 2026-04-25 12:43 | 29.24606 | -81.32256 | 21272 ft | 429 kts | 355° |
| 2026-04-25 12:43 | 29.27596 | -81.32429 | 21686 ft | 432 kts | 355° |
| 2026-04-25 12:43 | 29.33636 | -81.32788 | 22538 ft | 437 kts | 355° |
| 2026-04-25 12:44 | 29.36685 | -81.32970 | 23001 ft | 440 kts | 355° |
| 2026-04-25 12:44 | 29.39749 | -81.33154 | 23447 ft | 442 kts | 355° |
| 2026-04-25 12:44 | 29.45934 | -81.33527 | 24209 ft | 447 kts | 355° |
| 2026-04-25 12:45 | 29.49048 | -81.33714 | 24593 ft | 450 kts | 355° |
| 2026-04-25 12:45 | 29.52180 | -81.33903 | 24981 ft | 452 kts | 355° |
| 2026-04-25 12:45 | 29.58568 | -81.34291 | 25378 ft | 466 kts | 356° |
| 2026-04-25 12:46 | 29.61818 | -81.34487 | 25727 ft | 469 kts | 356° |
| 2026-04-25 12:46 | 29.65084 | -81.34686 | 26099 ft | 471 kts | 356° |
| 2026-04-25 12:46 | 29.68359 | -81.34877 | 26478 ft | 473 kts | 356° |
| 2026-04-25 12:46 | 29.71638 | -81.35061 | 27067 ft | 469 kts | 356° |
| 2026-04-25 12:47 | 29.74890 | -81.35244 | 27608 ft | 468 kts | 356° |
| 2026-04-25 12:47 | 29.78141 | -81.35429 | 28006 ft | 469 kts | 356° |
| 2026-04-25 12:47 | 29.81410 | -81.35615 | 28363 ft | 471 kts | 356° |
| 2026-04-25 12:47 | 29.84688 | -81.35803 | 28697 ft | 473 kts | 357° |
| 2026-04-25 12:48 | 29.87982 | -81.35992 | 29013 ft | 475 kts | 357° |
| 2026-04-25 12:48 | 29.91292 | -81.36182 | 29346 ft | 477 kts | 357° |
| 2026-04-25 12:48 | 29.94613 | -81.36373 | 29673 ft | 479 kts | 357° |
| 2026-04-25 12:48 | 29.97943 | -81.36564 | 29961 ft | 480 kts | 357° |
| 2026-04-25 12:49 | 30.01282 | -81.36756 | 30310 ft | 480 kts | 357° |
| 2026-04-25 12:49 | 30.04611 | -81.36948 | 30650 ft | 479 kts | 357° |
| 2026-04-25 12:49 | 30.07938 | -81.37140 | 30977 ft | 479 kts | 357° |
| 2026-04-25 12:49 | 30.11262 | -81.37332 | 31280 ft | 478 kts | 357° |
| 2026-04-25 12:50 | 30.14582 | -81.37524 | 31643 ft | 477 kts | 357° |
| 2026-04-25 12:50 | 30.17893 | -81.37715 | 31963 ft | 476 kts | 357° |
| 2026-04-25 12:50 | 30.21199 | -81.37906 | 32279 ft | 476 kts | 357° |
| 2026-04-25 12:50 | 30.24507 | -81.38098 | 32579 ft | 475 kts | 357° |
| 2026-04-25 12:51 | 30.27807 | -81.38289 | 32883 ft | 474 kts | 357° |
| 2026-04-25 12:51 | 30.31100 | -81.38480 | 33197 ft | 474 kts | 357° |
| 2026-04-25 12:51 | 30.34389 | -81.38670 | 33477 ft | 473 kts | 357° |
| 2026-04-25 12:51 | 30.37678 | -81.38861 | 33751 ft | 473 kts | 357° |
| 2026-04-25 12:52 | 30.40959 | -81.39052 | 34017 ft | 472 kts | 357° |
| 2026-04-25 12:52 | 30.44242 | -81.39243 | 34247 ft | 472 kts | 357° |
| 2026-04-25 12:52 | 30.47514 | -81.39435 | 34497 ft | 470 kts | 357° |
| 2026-04-25 12:52 | 30.50778 | -81.39611 | 34759 ft | 469 kts | 357° |
| 2026-04-25 12:53 | 30.54030 | -81.39778 | 35007 ft | 468 kts | 357° |
| 2026-04-25 12:53 | 30.57277 | -81.39946 | 35239 ft | 466 kts | 357° |
| 2026-04-25 12:53 | 30.60475 | -81.40112 | 35456 ft | 465 kts | 357° |
| 2026-04-25 12:53 | 30.63706 | -81.40282 | 35678 ft | 464 kts | 357° |
| 2026-04-25 12:54 | 30.66930 | -81.40452 | 35874 ft | 464 kts | 357° |
| 2026-04-25 12:54 | 30.70147 | -81.40622 | 36065 ft | 463 kts | 356° |
| 2026-04-25 12:54 | 30.73363 | -81.40793 | 36263 ft | 462 kts | 356° |
| 2026-04-25 12:54 | 30.76564 | -81.40962 | 36452 ft | 461 kts | 356° |
| 2026-04-25 12:55 | 30.79766 | -81.41133 | 36616 ft | 460 kts | 356° |
| 2026-04-25 12:55 | 30.81924 | -81.41247 | 36732 ft | 460 kts | 356° |
| 2026-04-25 12:55 | 30.86155 | -81.41472 | 36929 ft | 459 kts | 356° |
| 2026-04-25 12:55 | 30.89352 | -81.41643 | 36970 ft | 461 kts | 356° |
| 2026-04-25 12:56 | 30.95798 | -81.41987 | 36962 ft | 465 kts | 356° |
| 2026-04-25 12:56 | 31.02259 | -81.42331 | 36963 ft | 464 kts | 356° |
| 2026-04-25 12:57 | 31.08704 | -81.42676 | 36963 ft | 464 kts | 356° |
| 2026-04-25 12:57 | 31.15150 | -81.43021 | 36961 ft | 464 kts | 356° |
| 2026-04-25 12:58 | 31.21593 | -81.43366 | 36971 ft | 464 kts | 356° |
| 2026-04-25 12:58 | 31.28038 | -81.43712 | 36972 ft | 464 kts | 356° |
| 2026-04-25 12:59 | 31.34489 | -81.43843 | 36966 ft | 466 kts | 6° |
| 2026-04-25 12:59 | 31.37616 | -81.42850 | 36973 ft | 468 kts | 22° |
| 2026-04-25 12:59 | 31.40409 | -81.40878 | 36978 ft | 473 kts | 36° |
| 2026-04-25 13:00 | 31.43865 | -81.37764 | 36968 ft | 473 kts | 32° |
| 2026-04-25 13:00 | 31.51400 | -81.32558 | 36968 ft | 472 kts | 26° |
| 2026-04-25 13:01 | 31.57215 | -81.28982 | 36959 ft | 472 kts | 25° |
| 2026-04-25 13:01 | 31.63046 | -81.25447 | 36957 ft | 470 kts | 25° |
| 2026-04-25 13:02 | 31.68849 | -81.21915 | 36949 ft | 470 kts | 25° |
| 2026-04-25 13:02 | 31.74645 | -81.18369 | 36929 ft | 470 kts | 25° |
| 2026-04-25 13:03 | 31.80439 | -81.14814 | 36920 ft | 470 kts | 25° |
| 2026-04-25 13:03 | 31.86243 | -81.11248 | 36913 ft | 471 kts | 25° |
| 2026-04-25 13:04 | 31.92043 | -81.07679 | 36908 ft | 471 kts | 25° |
| 2026-04-25 13:04 | 31.97843 | -81.04106 | 36906 ft | 471 kts | 25° |
| 2026-04-25 13:05 | 32.03675 | -81.00598 | 36908 ft | 470 kts | 23° |
| 2026-04-25 13:05 | 32.09604 | -80.97321 | 36915 ft | 472 kts | 22° |
| 2026-04-25 13:06 | 32.15557 | -80.94055 | 36945 ft | 472 kts | 22° |
| 2026-04-25 13:06 | 32.21499 | -80.90749 | 36958 ft | 472 kts | 22° |
| 2026-04-25 13:07 | 32.27425 | -80.87422 | 36948 ft | 471 kts | 23° |
| 2026-04-25 13:07 | 32.33299 | -80.84115 | 36951 ft | 471 kts | 23° |
| 2026-04-25 13:08 | 32.39222 | -80.80778 | 36943 ft | 472 kts | 23° |
| 2026-04-25 13:08 | 32.45154 | -80.77432 | 36943 ft | 472 kts | 23° |
| 2026-04-25 13:09 | 32.51080 | -80.74084 | 36944 ft | 472 kts | 23° |
| 2026-04-25 13:09 | 32.57011 | -80.70729 | 36944 ft | 472 kts | 23° |
| 2026-04-25 13:10 | 32.62952 | -80.67363 | 36944 ft | 473 kts | 23° |
| 2026-04-25 13:10 | 32.68838 | -80.63842 | 36946 ft | 475 kts | 29° |
| 2026-04-25 13:11 | 32.73950 | -80.58836 | 36944 ft | 480 kts | 44° |
| 2026-04-25 13:11 | 32.78456 | -80.52955 | 36949 ft | 482 kts | 46° |
| 2026-04-25 13:12 | 32.82849 | -80.46942 | 36945 ft | 482 kts | 47° |
| 2026-04-25 13:12 | 32.85784 | -80.42913 | 36945 ft | 482 kts | 47° |
| 2026-04-25 13:13 | 32.91646 | -80.34914 | 36941 ft | 482 kts | 46° |
| 2026-04-25 13:13 | 32.95309 | -80.29927 | 36940 ft | 482 kts | 46° |
| 2026-04-25 13:14 | 32.99722 | -80.23917 | 36942 ft | 482 kts | 46° |
| 2026-04-25 13:14 | 33.04131 | -80.17899 | 36942 ft | 482 kts | 46° |
| 2026-04-25 13:15 | 33.08533 | -80.11881 | 36932 ft | 480 kts | 47° |
| 2026-04-25 13:15 | 33.12914 | -80.05880 | 36932 ft | 479 kts | 47° |
| 2026-04-25 13:16 | 33.17291 | -79.99875 | 36932 ft | 479 kts | 47° |
| 2026-04-25 13:16 | 33.21663 | -79.93867 | 36932 ft | 479 kts | 47° |
| 2026-04-25 13:17 | 33.26035 | -79.87848 | 36933 ft | 480 kts | 47° |
| 2026-04-25 13:17 | 33.30406 | -79.81822 | 36936 ft | 481 kts | 47° |
| 2026-04-25 13:18 | 33.34789 | -79.75769 | 36936 ft | 480 kts | 47° |
| 2026-04-25 13:18 | 33.39154 | -79.69739 | 36941 ft | 479 kts | 47° |
| 2026-04-25 13:19 | 33.43479 | -79.63742 | 36942 ft | 479 kts | 47° |
| 2026-04-25 13:19 | 33.47126 | -79.58676 | 36941 ft | 479 kts | 47° |
| 2026-04-25 13:20 | 33.52184 | -79.51641 | 36942 ft | 480 kts | 47° |
| 2026-04-25 13:20 | 33.56550 | -79.45561 | 36942 ft | 482 kts | 47° |
| 2026-04-25 13:21 | 33.60922 | -79.39462 | 36944 ft | 481 kts | 48° |
| 2026-04-25 13:21 | 33.65276 | -79.33376 | 36942 ft | 480 kts | 48° |
| 2026-04-25 13:22 | 33.69621 | -79.27303 | 36946 ft | 479 kts | 48° |
| 2026-04-25 13:23 | 33.76136 | -79.18178 | 36946 ft | 481 kts | 48° |
| 2026-04-25 13:23 | 33.80503 | -79.12043 | 36942 ft | 483 kts | 48° |
| 2026-04-25 13:24 | 33.84872 | -79.05899 | 36943 ft | 484 kts | 48° |
| 2026-04-25 13:24 | 33.89236 | -78.99751 | 36944 ft | 482 kts | 48° |
| 2026-04-25 13:25 | 33.93554 | -78.93660 | 36942 ft | 481 kts | 48° |
| 2026-04-25 13:25 | 33.97899 | -78.87518 | 36935 ft | 482 kts | 48° |
| 2026-04-25 13:26 | 34.02255 | -78.81353 | 36935 ft | 484 kts | 48° |
| 2026-04-25 13:26 | 34.06618 | -78.75165 | 36933 ft | 485 kts | 48° |
| 2026-04-25 13:27 | 34.10983 | -78.68964 | 36947 ft | 485 kts | 48° |
| 2026-04-25 13:27 | 34.15335 | -78.62769 | 36940 ft | 483 kts | 48° |
| 2026-04-25 13:28 | 34.19673 | -78.56583 | 36940 ft | 482 kts | 48° |
| 2026-04-25 13:28 | 34.23959 | -78.50312 | 36938 ft | 487 kts | 52° |
| 2026-04-25 13:29 | 34.27298 | -78.43167 | 36935 ft | 490 kts | 62° |
| 2026-04-25 13:29 | 34.30221 | -78.35704 | 36930 ft | 491 kts | 63° |
| 2026-04-25 13:30 | 34.34494 | -78.24444 | 36931 ft | 491 kts | 63° |
| 2026-04-25 13:31 | 34.38767 | -78.13235 | 36933 ft | 491 kts | 63° |
| 2026-04-25 13:31 | 34.41631 | -78.05730 | 36939 ft | 492 kts | 63° |
| 2026-04-25 13:32 | 34.44504 | -77.98188 | 36937 ft | 494 kts | 63° |
| 2026-04-25 13:32 | 34.47374 | -77.90633 | 36930 ft | 493 kts | 63° |
| 2026-04-25 13:33 | 34.50232 | -77.83088 | 36931 ft | 492 kts | 63° |
| 2026-04-25 13:33 | 34.53084 | -77.75545 | 36931 ft | 492 kts | 63° |
| 2026-04-25 13:34 | 34.56268 | -77.68231 | 36932 ft | 489 kts | 52° |
| 2026-04-25 13:34 | 34.60754 | -77.62113 | 36931 ft | 485 kts | 42° |
| 2026-04-25 13:35 | 34.65641 | -77.56437 | 36929 ft | 486 kts | 41° |
| 2026-04-25 13:35 | 34.70575 | -77.50834 | 36935 ft | 485 kts | 41° |
| 2026-04-25 13:36 | 34.75497 | -77.45211 | 36934 ft | 485 kts | 41° |
| 2026-04-25 13:36 | 34.80404 | -77.39563 | 36935 ft | 485 kts | 41° |
| 2026-04-25 13:37 | 34.85300 | -77.33904 | 36936 ft | 486 kts | 41° |
| 2026-04-25 13:37 | 34.90217 | -77.28213 | 36930 ft | 488 kts | 41° |
| 2026-04-25 13:38 | 34.95137 | -77.22507 | 36939 ft | 489 kts | 41° |
| 2026-04-25 13:38 | 35.00052 | -77.16799 | 36934 ft | 487 kts | 41° |
| 2026-04-25 13:39 | 35.04952 | -77.11098 | 36934 ft | 487 kts | 41° |
| 2026-04-25 13:39 | 35.09851 | -77.05389 | 36934 ft | 488 kts | 41° |
| 2026-04-25 13:40 | 35.14759 | -76.99659 | 36933 ft | 488 kts | 41° |
| 2026-04-25 13:40 | 35.19663 | -76.93924 | 36909 ft | 488 kts | 41° |
| 2026-04-25 13:41 | 35.24568 | -76.88178 | 36908 ft | 488 kts | 41° |
| 2026-04-25 13:41 | 35.29468 | -76.82427 | 36909 ft | 488 kts | 41° |
| 2026-04-25 13:42 | 35.34360 | -76.76675 | 36904 ft | 487 kts | 41° |
| 2026-04-25 13:42 | 35.39242 | -76.70925 | 36904 ft | 487 kts | 41° |
| 2026-04-25 13:43 | 35.44128 | -76.65161 | 36903 ft | 487 kts | 41° |
| 2026-04-25 13:43 | 35.49007 | -76.59395 | 36905 ft | 487 kts | 41° |
| 2026-04-25 13:44 | 35.53891 | -76.53611 | 36908 ft | 489 kts | 41° |
| 2026-04-25 13:44 | 35.58788 | -76.47805 | 36904 ft | 489 kts | 41° |
| 2026-04-25 13:45 | 35.64042 | -76.42567 | 36900 ft | 485 kts | 33° |
| 2026-04-25 13:45 | 35.69506 | -76.37792 | 36898 ft | 485 kts | 32° |
| 2026-04-25 13:46 | 35.75040 | -76.33052 | 36901 ft | 485 kts | 31° |
| 2026-04-25 13:46 | 35.80581 | -76.28296 | 36898 ft | 485 kts | 31° |
| 2026-04-25 13:47 | 35.86112 | -76.23525 | 36893 ft | 485 kts | 31° |
| 2026-04-25 13:47 | 35.91641 | -76.18739 | 36897 ft | 485 kts | 31° |
| 2026-04-25 13:48 | 35.97168 | -76.13945 | 36901 ft | 486 kts | 31° |
| 2026-04-25 13:48 | 36.02695 | -76.09144 | 36895 ft | 485 kts | 31° |
| 2026-04-25 13:49 | 36.08217 | -76.04340 | 36900 ft | 485 kts | 31° |
| 2026-04-25 13:49 | 36.13734 | -75.99532 | 36900 ft | 485 kts | 31° |
| 2026-04-25 13:50 | 36.19245 | -75.94721 | 36896 ft | 486 kts | 31° |
| 2026-04-25 13:50 | 36.24769 | -75.89890 | 36897 ft | 486 kts | 31° |
| 2026-04-25 13:51 | 36.30488 | -75.85479 | 36895 ft | 483 kts | 26° |
| 2026-04-25 13:51 | 36.36319 | -75.81329 | 36890 ft | 483 kts | 25° |
| 2026-04-25 13:52 | 36.42172 | -75.77209 | 36893 ft | 483 kts | 25° |
| 2026-04-25 13:52 | 36.48009 | -75.73093 | 36885 ft | 482 kts | 25° |
| 2026-04-25 13:53 | 36.53832 | -75.68972 | 36885 ft | 482 kts | 25° |
| 2026-04-25 13:53 | 36.59653 | -75.64842 | 36885 ft | 482 kts | 25° |
| 2026-04-25 13:54 | 36.65480 | -75.60699 | 36883 ft | 482 kts | 25° |
| 2026-04-25 13:54 | 36.71299 | -75.56554 | 36884 ft | 482 kts | 25° |
| 2026-04-25 13:55 | 36.77082 | -75.52429 | 36889 ft | 482 kts | 25° |
| 2026-04-25 13:55 | 36.82903 | -75.48268 | 36907 ft | 482 kts | 24° |
| 2026-04-25 13:56 | 36.88719 | -75.44102 | 36894 ft | 482 kts | 24° |
| 2026-04-25 13:56 | 36.94537 | -75.39929 | 36893 ft | 481 kts | 25° |
| 2026-04-25 13:57 | 37.00332 | -75.35765 | 36902 ft | 480 kts | 24° |
| 2026-04-25 13:57 | 37.06094 | -75.31617 | 36906 ft | 480 kts | 24° |
| 2026-04-25 13:58 | 37.11904 | -75.27429 | 36904 ft | 480 kts | 24° |
| 2026-04-25 13:58 | 37.17696 | -75.23245 | 36908 ft | 480 kts | 24° |
| 2026-04-25 13:59 | 37.23480 | -75.19060 | 36906 ft | 480 kts | 24° |
| 2026-04-25 13:59 | 37.29266 | -75.14864 | 36913 ft | 480 kts | 24° |
| 2026-04-25 14:00 | 37.35050 | -75.10663 | 36922 ft | 480 kts | 24° |
| 2026-04-25 14:00 | 37.40840 | -75.06451 | 36925 ft | 480 kts | 24° |
| 2026-04-25 14:01 | 37.46609 | -75.02245 | 36929 ft | 479 kts | 24° |
| 2026-04-25 14:01 | 37.51395 | -74.98750 | 36933 ft | 478 kts | 24° |
| 2026-04-25 14:02 | 37.57146 | -74.94545 | 36933 ft | 478 kts | 24° |
| 2026-04-25 14:02 | 37.62896 | -74.90334 | 36933 ft | 478 kts | 24° |
| 2026-04-25 14:03 | 37.68721 | -74.86326 | 36946 ft | 475 kts | 21° |
| 2026-04-25 14:03 | 37.74637 | -74.82602 | 36938 ft | 475 kts | 20° |
| 2026-04-25 14:04 | 37.80549 | -74.78864 | 36943 ft | 475 kts | 21° |
| 2026-04-25 14:04 | 37.86449 | -74.75063 | 36947 ft | 476 kts | 21° |
| 2026-04-25 14:05 | 37.92341 | -74.71233 | 36954 ft | 476 kts | 21° |
| 2026-04-25 14:05 | 37.98236 | -74.67391 | 36956 ft | 477 kts | 21° |
| 2026-04-25 14:06 | 38.04137 | -74.63540 | 36967 ft | 477 kts | 21° |
| 2026-04-25 14:06 | 38.10039 | -74.59684 | 36965 ft | 477 kts | 21° |
| 2026-04-25 14:07 | 38.15944 | -74.55819 | 36968 ft | 478 kts | 21° |
| 2026-04-25 14:07 | 38.21849 | -74.51947 | 36974 ft | 478 kts | 21° |
| 2026-04-25 14:08 | 38.27759 | -74.48064 | 36982 ft | 478 kts | 21° |
| 2026-04-25 14:08 | 38.33669 | -74.44173 | 36986 ft | 478 kts | 20° |
| 2026-04-25 14:09 | 38.39582 | -74.40274 | 36986 ft | 479 kts | 20° |
| 2026-04-25 14:09 | 38.45500 | -74.36365 | 36993 ft | 479 kts | 20° |
| 2026-04-25 14:10 | 38.51411 | -74.32451 | 36995 ft | 477 kts | 20° |
| 2026-04-25 14:10 | 38.57306 | -74.28541 | 37008 ft | 477 kts | 20° |
| 2026-04-25 14:11 | 38.63157 | -74.24655 | 37002 ft | 477 kts | 20° |
| 2026-04-25 14:11 | 38.69052 | -74.20732 | 37014 ft | 478 kts | 20° |
| 2026-04-25 14:12 | 38.74941 | -74.16805 | 37018 ft | 477 kts | 20° |
| 2026-04-25 14:12 | 38.80833 | -74.12868 | 37020 ft | 477 kts | 20° |
| 2026-04-25 14:13 | 38.86714 | -74.08932 | 37023 ft | 477 kts | 20° |
| 2026-04-25 14:13 | 38.92604 | -74.04982 | 37026 ft | 477 kts | 20° |
| 2026-04-25 14:14 | 38.98482 | -74.01019 | 37029 ft | 479 kts | 21° |
| 2026-04-25 14:14 | 39.04116 | -73.96328 | 37036 ft | 483 kts | 27° |
| 2026-04-25 14:15 | 39.09637 | -73.91395 | 37045 ft | 483 kts | 27° |
| 2026-04-25 14:15 | 39.15136 | -73.86415 | 37043 ft | 483 kts | 27° |
| 2026-04-25 14:16 | 39.20648 | -73.81422 | 37042 ft | 485 kts | 27° |
| 2026-04-25 14:16 | 39.26169 | -73.76423 | 37055 ft | 485 kts | 27° |
| 2026-04-25 14:17 | 39.31652 | -73.71452 | 37053 ft | 485 kts | 27° |
| 2026-04-25 14:17 | 39.37171 | -73.66440 | 37060 ft | 485 kts | 27° |
| 2026-04-25 14:18 | 39.42693 | -73.61414 | 37063 ft | 484 kts | 27° |
| 2026-04-25 14:18 | 39.48197 | -73.56393 | 37074 ft | 484 kts | 27° |
| 2026-04-25 14:19 | 39.53691 | -73.51373 | 37076 ft | 484 kts | 27° |
| 2026-04-25 14:19 | 39.59188 | -73.46342 | 37076 ft | 484 kts | 27° |
| 2026-04-25 14:20 | 39.64684 | -73.41301 | 37075 ft | 484 kts | 27° |
| 2026-04-25 14:20 | 39.70176 | -73.36253 | 37098 ft | 484 kts | 28° |
| 2026-04-25 14:21 | 39.75661 | -73.31200 | 37086 ft | 483 kts | 27° |
| 2026-04-25 14:21 | 39.80915 | -73.25779 | 37088 ft | 492 kts | 38° |
| 2026-04-25 14:22 | 39.85296 | -73.18799 | 37091 ft | 500 kts | 46° |
| 2026-04-25 14:22 | 39.89390 | -73.11456 | 37109 ft | 502 kts | 47° |
| 2026-04-25 14:23 | 39.93435 | -73.04054 | 37084 ft | 501 kts | 47° |
| 2026-04-25 14:23 | 39.97483 | -72.96675 | 37103 ft | 501 kts | 47° |
| 2026-04-25 14:24 | 40.01541 | -72.89302 | 37101 ft | 499 kts | 47° |
| 2026-04-25 14:24 | 40.05589 | -72.81942 | 37119 ft | 499 kts | 47° |
| 2026-04-25 14:25 | 40.09626 | -72.74585 | 37106 ft | 498 kts | 47° |
| 2026-04-25 14:25 | 40.13652 | -72.67230 | 37105 ft | 498 kts | 47° |
| 2026-04-25 14:26 | 40.17672 | -72.59868 | 37131 ft | 498 kts | 47° |
| 2026-04-25 14:26 | 40.21682 | -72.52506 | 37118 ft | 496 kts | 47° |
| 2026-04-25 14:27 | 40.25676 | -72.45155 | 37114 ft | 495 kts | 47° |
| 2026-04-25 14:27 | 40.29658 | -72.37810 | 37119 ft | 494 kts | 47° |
| 2026-04-25 14:28 | 40.33635 | -72.30460 | 37126 ft | 495 kts | 47° |
| 2026-04-25 14:28 | 40.37607 | -72.23100 | 37129 ft | 495 kts | 47° |
| 2026-04-25 14:29 | 40.41552 | -72.15773 | 37127 ft | 495 kts | 47° |
| 2026-04-25 14:29 | 40.45550 | -72.08330 | 37129 ft | 496 kts | 47° |
| 2026-04-25 14:30 | 40.49416 | -72.00889 | 37134 ft | 501 kts | 52° |
| 2026-04-25 14:30 | 40.53864 | -71.88283 | 37151 ft | 509 kts | 59° |
| 2026-04-25 14:31 | 40.56618 | -71.79681 | 37130 ft | 511 kts | 60° |
| 2026-04-25 14:31 | 40.59363 | -71.71061 | 37132 ft | 511 kts | 60° |
| 2026-04-25 14:32 | 40.62116 | -71.62443 | 37149 ft | 511 kts | 60° |
| 2026-04-25 14:32 | 40.64869 | -71.53829 | 37149 ft | 511 kts | 59° |
| 2026-04-25 14:33 | 40.67621 | -71.45197 | 37140 ft | 511 kts | 59° |
| 2026-04-25 14:33 | 40.70365 | -71.36562 | 37139 ft | 511 kts | 59° |
| 2026-04-25 14:34 | 40.73102 | -71.27917 | 37140 ft | 511 kts | 59° |
| 2026-04-25 14:34 | 40.75836 | -71.19258 | 37143 ft | 511 kts | 59° |
| 2026-04-25 14:35 | 40.78542 | -71.10656 | 37138 ft | 511 kts | 59° |
| 2026-04-25 14:35 | 40.81262 | -71.01983 | 37138 ft | 511 kts | 59° |
| 2026-04-25 14:36 | 40.83800 | -70.93189 | 37137 ft | 515 kts | 63° |
| 2026-04-25 14:36 | 40.86053 | -70.84200 | 37144 ft | 515 kts | 64° |
| 2026-04-25 14:37 | 40.88304 | -70.75222 | 37146 ft | 514 kts | 63° |
| 2026-04-25 14:37 | 40.90600 | -70.66267 | 37132 ft | 514 kts | 63° |
| 2026-04-25 14:38 | 40.92910 | -70.57328 | 37127 ft | 514 kts | 63° |
| 2026-04-25 14:38 | 40.95217 | -70.48380 | 37145 ft | 513 kts | 62° |
| 2026-04-25 14:39 | 40.97506 | -70.39455 | 37135 ft | 512 kts | 62° |
| 2026-04-25 14:39 | 40.99789 | -70.30522 | 37137 ft | 512 kts | 62° |
| 2026-04-25 14:40 | 41.02066 | -70.21576 | 37140 ft | 513 kts | 62° |
| 2026-04-25 14:40 | 41.04319 | -70.12687 | 37141 ft | 512 kts | 62° |
| 2026-04-25 14:41 | 41.06581 | -70.03735 | 37142 ft | 512 kts | 62° |
| 2026-04-25 14:41 | 41.08835 | -69.94779 | 37143 ft | 512 kts | 62° |
| 2026-04-25 14:42 | 41.10341 | -69.88776 | 37143 ft | 513 kts | 62° |
| 2026-04-25 14:42 | 41.13327 | -69.76827 | 37137 ft | 513 kts | 62° |
| 2026-04-25 14:43 | 41.15567 | -69.67826 | 37138 ft | 514 kts | 62° |
| 2026-04-25 14:43 | 41.17799 | -69.58820 | 37151 ft | 514 kts | 62° |
| 2026-04-25 14:44 | 41.20021 | -69.49819 | 37133 ft | 513 kts | 62° |
| 2026-04-25 14:44 | 41.22234 | -69.40818 | 37132 ft | 513 kts | 63° |
| 2026-04-25 14:45 | 41.24444 | -69.31802 | 37132 ft | 513 kts | 63° |
| 2026-04-25 14:45 | 41.26646 | -69.22783 | 37131 ft | 513 kts | 63° |
| 2026-04-25 14:46 | 41.28839 | -69.13760 | 37132 ft | 513 kts | 63° |
| 2026-04-25 14:46 | 41.31025 | -69.04729 | 37131 ft | 512 kts | 63° |
| 2026-04-25 14:47 | 41.32479 | -68.98703 | 37127 ft | 512 kts | 63° |
| 2026-04-25 14:47 | 41.35367 | -68.86696 | 37123 ft | 512 kts | 63° |
| 2026-04-25 14:48 | 41.37524 | -68.77680 | 37116 ft | 511 kts | 63° |
| 2026-04-25 14:48 | 41.39673 | -68.68669 | 37113 ft | 510 kts | 63° |
| 2026-04-25 14:49 | 41.41813 | -68.59654 | 37118 ft | 510 kts | 63° |
| 2026-04-25 14:49 | 41.43942 | -68.50653 | 37126 ft | 509 kts | 63° |
| 2026-04-25 14:50 | 41.46064 | -68.41655 | 37113 ft | 509 kts | 63° |
| 2026-04-25 14:50 | 41.47824 | -68.34161 | 37113 ft | 509 kts | 63° |
| 2026-04-25 14:51 | 41.49934 | -68.25143 | 37108 ft | 509 kts | 63° |
| 2026-04-25 14:51 | 41.52039 | -68.16113 | 37124 ft | 510 kts | 64° |
| 2026-04-25 14:52 | 41.54137 | -68.07068 | 37107 ft | 510 kts | 64° |
| 2026-04-25 14:52 | 41.55874 | -67.99550 | 37108 ft | 510 kts | 64° |
| 2026-04-25 14:53 | 41.58312 | -67.88957 | 37102 ft | 510 kts | 64° |
| 2026-04-25 14:53 | 41.60390 | -67.79892 | 37100 ft | 510 kts | 64° |
| 2026-04-25 14:54 | 41.62462 | -67.70819 | 37100 ft | 511 kts | 64° |
| 2026-04-25 14:54 | 41.64528 | -67.61734 | 37096 ft | 510 kts | 64° |
| 2026-04-25 14:55 | 41.66585 | -67.52652 | 37112 ft | 511 kts | 65° |
| 2026-04-25 14:55 | 41.68624 | -67.43611 | 37088 ft | 511 kts | 65° |
| 2026-04-25 14:56 | 41.70684 | -67.34441 | 37089 ft | 512 kts | 65° |
| 2026-04-25 14:56 | 41.72709 | -67.25381 | 37088 ft | 512 kts | 65° |
| 2026-04-25 14:57 | 41.74744 | -67.16245 | 37079 ft | 512 kts | 65° |
| 2026-04-25 14:57 | 41.76773 | -67.07102 | 37077 ft | 513 kts | 65° |
| 2026-04-25 14:58 | 41.78986 | -66.98065 | 37071 ft | 507 kts | 60° |
| 2026-04-25 14:58 | 41.81599 | -66.89312 | 37103 ft | 505 kts | 59° |
| 2026-04-25 14:59 | 41.84271 | -66.80602 | 37075 ft | 505 kts | 60° |
| 2026-04-25 14:59 | 41.86945 | -66.71882 | 37064 ft | 505 kts | 60° |
| 2026-04-25 15:00 | 41.89605 | -66.63153 | 37062 ft | 506 kts | 60° |
| 2026-04-25 15:00 | 41.92239 | -66.54460 | 37077 ft | 506 kts | 61° |
| 2026-04-25 15:01 | 41.94878 | -66.45720 | 37049 ft | 505 kts | 61° |
| 2026-04-25 15:01 | 41.97510 | -66.36972 | 37049 ft | 504 kts | 61° |
| 2026-04-25 15:02 | 42.00133 | -66.28229 | 37046 ft | 504 kts | 61° |
| 2026-04-25 15:02 | 42.02750 | -66.19480 | 37050 ft | 504 kts | 62° |
| 2026-04-25 15:03 | 42.05357 | -66.10729 | 37036 ft | 504 kts | 62° |
| 2026-04-25 15:03 | 42.07956 | -66.01977 | 37038 ft | 504 kts | 62° |
| 2026-04-25 15:04 | 42.10549 | -65.93215 | 37030 ft | 504 kts | 62° |
| 2026-04-25 15:04 | 42.13135 | -65.84452 | 37028 ft | 504 kts | 62° |
| 2026-04-25 15:05 | 42.15715 | -65.75675 | 37028 ft | 504 kts | 62° |
| 2026-04-25 15:06 | 42.19571 | -65.62498 | 37018 ft | 504 kts | 62° |
| 2026-04-25 15:06 | 42.22132 | -65.53713 | 37020 ft | 503 kts | 63° |
| 2026-04-25 15:07 | 42.24685 | -65.44922 | 37018 ft | 503 kts | 63° |
| 2026-04-25 15:07 | 42.27227 | -65.36140 | 37022 ft | 503 kts | 63° |
| 2026-04-25 15:08 | 42.29764 | -65.27346 | 37005 ft | 502 kts | 63° |
| 2026-04-25 15:08 | 42.32270 | -65.18628 | 37005 ft | 501 kts | 63° |
| 2026-04-25 15:09 | 42.34786 | -65.09844 | 37000 ft | 501 kts | 63° |
| 2026-04-25 15:09 | 42.38546 | -64.96666 | 37005 ft | 501 kts | 64° |
| 2026-04-25 15:10 | 42.41048 | -64.87858 | 36990 ft | 502 kts | 64° |
| 2026-04-25 15:11 | 42.44788 | -64.74633 | 36989 ft | 502 kts | 64° |
| 2026-04-25 15:11 | 42.47273 | -64.65806 | 36988 ft | 502 kts | 64° |
| 2026-04-25 15:12 | 42.50994 | -64.52530 | 36983 ft | 502 kts | 64° |
| 2026-04-25 15:12 | 42.52646 | -64.46611 | 36978 ft | 502 kts | 65° |
| 2026-04-25 15:13 | 42.57157 | -64.30384 | 36972 ft | 502 kts | 65° |
| 2026-04-25 15:14 | 42.59595 | -64.21569 | 36964 ft | 502 kts | 65° |
| 2026-04-25 15:14 | 42.62036 | -64.12713 | 36965 ft | 500 kts | 65° |
| 2026-04-25 15:15 | 42.64466 | -64.03859 | 36976 ft | 500 kts | 65° |
| 2026-04-25 15:15 | 42.66890 | -63.95001 | 36953 ft | 500 kts | 65° |
| 2026-04-25 15:16 | 42.69307 | -63.86138 | 36963 ft | 500 kts | 66° |
| 2026-04-25 15:16 | 42.72909 | -63.72863 | 36953 ft | 498 kts | 66° |
| 2026-04-25 15:17 | 42.76485 | -63.59618 | 36951 ft | 497 kts | 66° |
| 2026-04-25 15:18 | 42.78858 | -63.50786 | 36941 ft | 496 kts | 66° |
| 2026-04-25 15:18 | 42.82397 | -63.37558 | 36936 ft | 495 kts | 66° |
| 2026-04-25 15:19 | 42.83967 | -63.31666 | 36934 ft | 495 kts | 66° |
| 2026-04-25 15:19 | 42.87086 | -63.19919 | 36925 ft | 495 kts | 66° |
| 2026-04-25 15:20 | 42.89419 | -63.11094 | 36947 ft | 495 kts | 66° |
| 2026-04-25 15:20 | 42.91746 | -63.02258 | 36919 ft | 495 kts | 66° |
| 2026-04-25 15:21 | 42.94063 | -62.93430 | 36913 ft | 494 kts | 66° |
| 2026-04-25 15:21 | 42.96374 | -62.84590 | 36912 ft | 494 kts | 66° |
| 2026-04-25 15:22 | 42.98678 | -62.75744 | 36900 ft | 494 kts | 66° |
| 2026-04-25 15:22 | 43.00975 | -62.66893 | 36906 ft | 494 kts | 67° |
| 2026-04-25 15:23 | 43.03265 | -62.58037 | 36901 ft | 494 kts | 67° |
| 2026-04-25 15:23 | 43.05549 | -62.49172 | 36884 ft | 494 kts | 67° |
| 2026-04-25 15:24 | 43.07825 | -62.40303 | 36886 ft | 494 kts | 67° |
| 2026-04-25 15:24 | 43.09326 | -62.34434 | 36879 ft | 494 kts | 67° |
| 2026-04-25 15:25 | 43.12353 | -62.22559 | 36875 ft | 493 kts | 67° |
| 2026-04-25 15:25 | 43.14604 | -62.13686 | 36868 ft | 493 kts | 67° |
| 2026-04-25 15:26 | 43.16849 | -62.04808 | 36863 ft | 493 kts | 67° |
| 2026-04-25 15:26 | 43.19087 | -61.95920 | 36860 ft | 493 kts | 68° |
| 2026-04-25 15:27 | 43.21299 | -61.87100 | 36855 ft | 493 kts | 68° |
| 2026-04-25 15:28 | 43.24631 | -61.73759 | 36846 ft | 493 kts | 68° |
| 2026-04-25 15:28 | 43.26843 | -61.64859 | 36843 ft | 493 kts | 68° |
| 2026-04-25 15:29 | 43.29047 | -61.55953 | 36851 ft | 493 kts | 68° |
| 2026-04-25 15:29 | 43.31247 | -61.47033 | 36841 ft | 493 kts | 68° |
| 2026-04-25 15:30 | 43.33437 | -61.38117 | 36829 ft | 493 kts | 68° |
| 2026-04-25 15:30 | 43.35621 | -61.29183 | 36828 ft | 493 kts | 68° |
| 2026-04-25 15:31 | 43.37799 | -61.20248 | 36814 ft | 493 kts | 68° |
| 2026-04-25 15:31 | 43.39972 | -61.11300 | 36814 ft | 493 kts | 68° |
| 2026-04-25 15:32 | 43.42137 | -61.02347 | 36809 ft | 493 kts | 68° |
| 2026-04-25 15:32 | 43.44295 | -60.93384 | 36804 ft | 494 kts | 68° |
| 2026-04-25 15:33 | 43.47521 | -60.79923 | 36799 ft | 494 kts | 68° |
| 2026-04-25 15:33 | 43.49666 | -60.70932 | 36788 ft | 494 kts | 69° |
| 2026-04-25 15:34 | 43.51802 | -60.61942 | 36788 ft | 494 kts | 69° |
| 2026-04-25 15:34 | 43.53226 | -60.55924 | 36778 ft | 494 kts | 69° |
| 2026-04-25 15:35 | 43.57109 | -60.39446 | 36773 ft | 494 kts | 69° |
| 2026-04-25 15:36 | 43.60270 | -60.25935 | 36765 ft | 493 kts | 69° |
| 2026-04-25 15:36 | 43.62351 | -60.16992 | 36764 ft | 492 kts | 69° |
| 2026-04-25 15:37 | 43.64440 | -60.07987 | 36747 ft | 493 kts | 69° |
| 2026-04-25 15:37 | 43.66519 | -59.98978 | 36757 ft | 493 kts | 69° |
| 2026-04-25 15:38 | 43.68606 | -59.89900 | 36747 ft | 492 kts | 69° |
| 2026-04-25 15:38 | 43.70322 | -59.82410 | 36745 ft | 492 kts | 69° |
| 2026-04-25 15:39 | 43.72713 | -59.71928 | 36734 ft | 492 kts | 69° |
| 2026-04-25 15:39 | 43.74762 | -59.62905 | 36730 ft | 492 kts | 70° |
| 2026-04-25 15:40 | 43.76130 | -59.56859 | 36722 ft | 492 kts | 69° |
| 2026-04-25 15:40 | 43.78512 | -59.46293 | 36716 ft | 492 kts | 70° |
| 2026-04-25 15:41 | 43.80542 | -59.37248 | 36713 ft | 492 kts | 70° |
| 2026-04-25 15:41 | 43.82551 | -59.28261 | 36705 ft | 492 kts | 70° |
| 2026-04-25 15:42 | 43.84566 | -59.19207 | 36704 ft | 492 kts | 70° |
| 2026-04-25 15:42 | 43.86574 | -59.10139 | 36699 ft | 493 kts | 70° |
| 2026-04-25 15:43 | 43.88593 | -59.00997 | 36697 ft | 493 kts | 70° |
| 2026-04-25 15:43 | 43.90577 | -58.91969 | 36689 ft | 493 kts | 70° |
| 2026-04-25 15:44 | 43.92580 | -58.82813 | 36689 ft | 493 kts | 70° |
| 2026-04-25 15:44 | 43.94564 | -58.73708 | 36689 ft | 493 kts | 70° |
| 2026-04-25 15:45 | 43.96538 | -58.64607 | 36680 ft | 492 kts | 70° |
| 2026-04-25 15:45 | 43.98172 | -58.57046 | 36674 ft | 492 kts | 70° |
| 2026-04-25 15:46 | 44.00463 | -58.46398 | 36666 ft | 492 kts | 71° |
| 2026-04-25 15:46 | 44.02400 | -58.37354 | 36664 ft | 492 kts | 71° |
| 2026-04-25 15:47 | 44.04344 | -58.28232 | 36665 ft | 492 kts | 70° |
| 2026-04-25 15:47 | 44.06279 | -58.19113 | 36653 ft | 492 kts | 71° |
| 2026-04-25 15:48 | 44.08210 | -58.09976 | 36647 ft | 492 kts | 70° |
| 2026-04-25 15:48 | 44.10133 | -58.00839 | 36657 ft | 492 kts | 71° |
| 2026-04-25 15:49 | 44.12052 | -57.91676 | 36636 ft | 494 kts | 71° |
| 2026-04-25 15:49 | 44.13968 | -57.82489 | 36636 ft | 494 kts | 71° |
| 2026-04-25 15:50 | 44.15876 | -57.73293 | 36622 ft | 494 kts | 71° |
| 2026-04-25 15:50 | 44.17778 | -57.64089 | 36622 ft | 495 kts | 71° |
| 2026-04-25 15:51 | 44.19352 | -57.56437 | 36625 ft | 495 kts | 71° |
| 2026-04-25 15:51 | 44.21561 | -57.45658 | 36616 ft | 495 kts | 71° |
| 2026-04-25 15:52 | 44.23443 | -57.36426 | 36616 ft | 496 kts | 71° |
| 2026-04-25 15:52 | 44.25322 | -57.27165 | 36607 ft | 496 kts | 71° |
| 2026-04-25 15:53 | 44.27193 | -57.17897 | 36605 ft | 496 kts | 71° |
| 2026-04-25 15:53 | 44.29057 | -57.08624 | 36597 ft | 497 kts | 71° |
| 2026-04-25 15:54 | 44.30916 | -56.99333 | 36593 ft | 496 kts | 72° |
| 2026-04-25 15:54 | 44.32763 | -56.90059 | 36586 ft | 496 kts | 72° |
| 2026-04-25 15:55 | 44.34592 | -56.80831 | 36592 ft | 496 kts | 72° |
| 2026-04-25 15:55 | 44.36425 | -56.71531 | 36574 ft | 497 kts | 71° |
| 2026-04-25 15:56 | 44.38252 | -56.62229 | 36574 ft | 497 kts | 71° |
| 2026-04-25 15:56 | 44.40071 | -56.52907 | 36564 ft | 497 kts | 71° |
| 2026-04-25 15:57 | 44.41887 | -56.43584 | 36557 ft | 497 kts | 72° |
| 2026-04-25 15:57 | 44.43694 | -56.34258 | 36557 ft | 497 kts | 72° |
| 2026-04-25 15:58 | 44.45492 | -56.24926 | 36543 ft | 497 kts | 72° |
| 2026-04-25 15:58 | 44.47283 | -56.15581 | 36549 ft | 497 kts | 72° |
| 2026-04-25 15:59 | 44.48940 | -56.06168 | 36534 ft | 500 kts | 77° |
| 2026-04-25 15:59 | 44.50096 | -55.96566 | 36529 ft | 501 kts | 78° |
| 2026-04-25 16:00 | 44.50802 | -55.90180 | 36528 ft | 501 kts | 79° |
| 2026-04-25 16:00 | 44.52197 | -55.77273 | 36525 ft | 501 kts | 78° |
| 2026-04-25 16:01 | 44.53239 | -55.67619 | 36518 ft | 501 kts | 78° |
| 2026-04-25 16:01 | 44.54274 | -55.58008 | 36510 ft | 503 kts | 79° |
| 2026-04-25 16:02 | 44.55312 | -55.48300 | 36503 ft | 504 kts | 78° |
| 2026-04-25 16:02 | 44.56342 | -55.38584 | 36495 ft | 504 kts | 78° |
| 2026-04-25 16:03 | 44.57366 | -55.28859 | 36490 ft | 504 kts | 78° |
| 2026-04-25 16:03 | 44.58377 | -55.19137 | 36494 ft | 504 kts | 79° |
| 2026-04-25 16:04 | 44.59384 | -55.09394 | 36487 ft | 506 kts | 79° |
| 2026-04-25 16:04 | 44.60389 | -54.99599 | 36477 ft | 508 kts | 79° |
| 2026-04-25 16:05 | 44.61386 | -54.89789 | 36466 ft | 508 kts | 79° |
| 2026-04-25 16:06 | 44.62864 | -54.75067 | 36465 ft | 508 kts | 79° |
| 2026-04-25 16:06 | 44.63840 | -54.65243 | 36456 ft | 507 kts | 79° |
| 2026-04-25 16:07 | 44.64802 | -54.55438 | 36452 ft | 507 kts | 79° |
| 2026-04-25 16:07 | 44.65762 | -54.45602 | 36441 ft | 509 kts | 79° |
| 2026-04-25 16:08 | 44.66718 | -54.35734 | 36440 ft | 509 kts | 80° |
| 2026-04-25 16:08 | 44.67661 | -54.25873 | 36429 ft | 509 kts | 79° |
| 2026-04-25 16:09 | 44.68597 | -54.15998 | 36434 ft | 509 kts | 79° |
| 2026-04-25 16:09 | 44.69522 | -54.06146 | 36415 ft | 508 kts | 80° |
| 2026-04-25 16:10 | 44.70444 | -53.96285 | 36418 ft | 510 kts | 80° |
| 2026-04-25 16:10 | 44.71357 | -53.86390 | 36405 ft | 511 kts | 81° |
| 2026-04-25 16:11 | 44.72259 | -53.76482 | 36406 ft | 511 kts | 81° |
| 2026-04-25 16:11 | 44.73147 | -53.66632 | 36397 ft | 511 kts | 81° |
| 2026-04-25 16:12 | 44.74034 | -53.56721 | 36391 ft | 511 kts | 81° |
| 2026-04-25 16:12 | 44.74912 | -53.46823 | 36381 ft | 511 kts | 81° |
| 2026-04-25 16:13 | 44.75785 | -53.36877 | 36380 ft | 513 kts | 81° |
| 2026-04-25 16:13 | 44.76651 | -53.26915 | 36382 ft | 514 kts | 81° |
| 2026-04-25 16:14 | 44.77507 | -53.16940 | 36372 ft | 513 kts | 82° |
| 2026-04-25 16:14 | 44.78354 | -53.06979 | 36372 ft | 513 kts | 82° |
| 2026-04-25 16:15 | 44.79194 | -52.97002 | 36361 ft | 513 kts | 82° |
| 2026-04-25 16:15 | 44.80026 | -52.87029 | 36365 ft | 513 kts | 82° |
| 2026-04-25 16:16 | 44.80848 | -52.77043 | 36364 ft | 514 kts | 81° |
| 2026-04-25 16:16 | 44.81661 | -52.67049 | 36363 ft | 514 kts | 82° |
| 2026-04-25 16:17 | 44.82464 | -52.57077 | 36353 ft | 511 kts | 82° |
| 2026-04-25 16:17 | 44.83256 | -52.47140 | 36353 ft | 510 kts | 82° |
| 2026-04-25 16:18 | 44.84039 | -52.37207 | 36341 ft | 511 kts | 82° |
| 2026-04-25 16:18 | 44.84817 | -52.27228 | 36338 ft | 513 kts | 83° |
| 2026-04-25 16:19 | 44.85586 | -52.17243 | 36334 ft | 513 kts | 83° |
| 2026-04-25 16:19 | 44.86347 | -52.07246 | 36328 ft | 513 kts | 83° |
| 2026-04-25 16:20 | 44.87472 | -51.92235 | 36325 ft | 514 kts | 83° |
| 2026-04-25 16:20 | 44.88208 | -51.82261 | 36336 ft | 501 kts | 83° |
| 2026-04-25 16:21 | 44.88562 | -51.77453 | 36323 ft | 486 kts | 83° |
| 2026-04-25 16:21 | 44.89233 | -51.68141 | 36321 ft | 474 kts | 83° |
| 2026-04-25 16:22 | 44.89889 | -51.58884 | 36307 ft | 475 kts | 84° |
| 2026-04-25 16:22 | 44.90540 | -51.49610 | 36308 ft | 476 kts | 84° |
| 2026-04-25 16:23 | 44.91184 | -51.40332 | 36299 ft | 475 kts | 84° |
| 2026-04-25 16:23 | 44.91817 | -51.31122 | 36297 ft | 475 kts | 84° |
| 2026-04-25 16:24 | 44.92449 | -51.21825 | 36301 ft | 478 kts | 84° |
| 2026-04-25 16:24 | 44.93073 | -51.12499 | 36293 ft | 478 kts | 84° |
| 2026-04-25 16:25 | 44.93691 | -51.03169 | 36293 ft | 477 kts | 84° |
| 2026-04-25 16:25 | 44.94300 | -50.93852 | 36287 ft | 477 kts | 84° |
| 2026-04-25 16:26 | 44.94902 | -50.84526 | 36283 ft | 477 kts | 85° |
| 2026-04-25 16:26 | 44.95401 | -50.76709 | 36278 ft | 477 kts | 85° |
| 2026-04-25 16:27 | 44.96087 | -50.65817 | 36283 ft | 481 kts | 85° |
| 2026-04-25 16:27 | 44.96577 | -50.57919 | 36282 ft | 482 kts | 85° |
| 2026-04-25 16:28 | 44.97156 | -50.48485 | 36279 ft | 482 kts | 85° |
| 2026-04-25 16:28 | 44.97723 | -50.39119 | 36282 ft | 482 kts | 85° |
| 2026-04-25 16:29 | 44.98285 | -50.29689 | 36275 ft | 483 kts | 86° |
| 2026-04-25 16:29 | 44.98842 | -50.20243 | 36278 ft | 484 kts | 86° |
| 2026-04-25 16:30 | 44.99393 | -50.10756 | 36280 ft | 486 kts | 86° |
| 2026-04-25 16:30 | 45.00089 | -50.01255 | 36278 ft | 488 kts | 79° |
| 2026-04-25 16:31 | 45.01976 | -49.92068 | 36279 ft | 487 kts | 71° |
| 2026-04-25 16:31 | 45.04211 | -49.83044 | 36277 ft | 485 kts | 70° |
| 2026-04-25 16:32 | 45.06491 | -49.74059 | 36270 ft | 486 kts | 70° |
| 2026-04-25 16:32 | 45.08753 | -49.65052 | 36278 ft | 486 kts | 71° |
| 2026-04-25 16:33 | 45.10993 | -49.56029 | 36275 ft | 485 kts | 71° |
| 2026-04-25 16:33 | 45.13222 | -49.46999 | 36268 ft | 487 kts | 71° |
| 2026-04-25 16:34 | 45.15435 | -49.37992 | 36274 ft | 488 kts | 71° |
| 2026-04-25 16:34 | 45.17656 | -49.28919 | 36284 ft | 488 kts | 71° |
| 2026-04-25 16:35 | 45.19872 | -49.19836 | 36279 ft | 487 kts | 72° |
| 2026-04-25 16:35 | 45.22074 | -49.10770 | 36276 ft | 486 kts | 72° |
| 2026-04-25 16:36 | 45.24268 | -49.01699 | 36282 ft | 486 kts | 72° |
| 2026-04-25 16:36 | 45.26458 | -48.92610 | 36289 ft | 487 kts | 72° |
| 2026-04-25 16:37 | 45.28642 | -48.83507 | 36286 ft | 487 kts | 72° |
| 2026-04-25 16:37 | 45.30819 | -48.74402 | 36289 ft | 487 kts | 72° |
| 2026-04-25 16:38 | 45.32990 | -48.65281 | 36288 ft | 487 kts | 72° |
| 2026-04-25 16:38 | 45.35153 | -48.56155 | 36300 ft | 488 kts | 73° |
| 2026-04-25 16:39 | 45.37322 | -48.46968 | 36317 ft | 491 kts | 73° |
| 2026-04-25 16:39 | 45.39485 | -48.37769 | 36301 ft | 491 kts | 73° |
| 2026-04-25 16:40 | 45.41642 | -48.28554 | 36296 ft | 491 kts | 73° |
| 2026-04-25 16:40 | 45.43790 | -48.19337 | 36306 ft | 491 kts | 73° |
| 2026-04-25 16:41 | 45.45918 | -48.10169 | 36310 ft | 491 kts | 74° |
| 2026-04-25 16:41 | 45.49121 | -47.96295 | 36316 ft | 491 kts | 73° |
| 2026-04-25 16:42 | 45.51244 | -47.87053 | 36333 ft | 490 kts | 73° |
| 2026-04-25 16:42 | 45.53360 | -47.77798 | 36334 ft | 491 kts | 74° |
| 2026-04-25 16:43 | 45.55467 | -47.68548 | 36328 ft | 491 kts | 74° |
| 2026-04-25 16:43 | 45.57572 | -47.59266 | 36337 ft | 492 kts | 74° |
| 2026-04-25 16:44 | 45.59673 | -47.49961 | 36356 ft | 492 kts | 74° |
| 2026-04-25 16:44 | 45.61765 | -47.40656 | 36352 ft | 492 kts | 75° |
| 2026-04-25 16:45 | 45.63848 | -47.31353 | 36358 ft | 491 kts | 75° |
| 2026-04-25 16:45 | 45.65922 | -47.22045 | 36362 ft | 491 kts | 75° |
| 2026-04-25 16:46 | 45.67986 | -47.12741 | 36374 ft | 491 kts | 75° |
| 2026-04-25 16:46 | 45.69696 | -47.05002 | 36376 ft | 491 kts | 75° |
| 2026-04-25 16:47 | 45.72093 | -46.94102 | 36375 ft | 491 kts | 75° |
| 2026-04-25 16:47 | 45.74118 | -46.84855 | 36384 ft | 490 kts | 75° |
| 2026-04-25 16:48 | 45.76147 | -46.75545 | 36392 ft | 490 kts | 75° |
| 2026-04-25 16:48 | 45.78170 | -46.66223 | 36398 ft | 490 kts | 75° |
| 2026-04-25 16:49 | 45.80187 | -46.56890 | 36400 ft | 490 kts | 76° |
| 2026-04-25 16:49 | 45.82194 | -46.47553 | 36404 ft | 490 kts | 76° |
| 2026-04-25 16:50 | 45.84196 | -46.38206 | 36409 ft | 490 kts | 76° |
| 2026-04-25 16:50 | 45.86188 | -46.28854 | 36409 ft | 490 kts | 76° |
| 2026-04-25 16:51 | 45.88173 | -46.19501 | 36408 ft | 490 kts | 76° |
| 2026-04-25 16:51 | 45.89815 | -46.11728 | 36418 ft | 490 kts | 76° |
| 2026-04-25 16:52 | 45.92116 | -46.00788 | 36428 ft | 489 kts | 76° |
| 2026-04-25 16:52 | 45.94075 | -45.91423 | 36431 ft | 489 kts | 76° |
| 2026-04-25 16:53 | 45.96998 | -45.77372 | 36435 ft | 489 kts | 76° |
| 2026-04-25 16:54 | 45.98938 | -45.67992 | 36445 ft | 490 kts | 77° |
| 2026-04-25 16:54 | 46.00872 | -45.58601 | 36448 ft | 490 kts | 77° |
| 2026-04-25 16:55 | 46.02797 | -45.49209 | 36447 ft | 490 kts | 77° |
| 2026-04-25 16:55 | 46.04714 | -45.39809 | 36450 ft | 489 kts | 77° |
| 2026-04-25 16:56 | 46.06625 | -45.30396 | 36463 ft | 490 kts | 77° |
| 2026-04-25 16:56 | 46.08527 | -45.20979 | 36465 ft | 490 kts | 77° |
| 2026-04-25 16:57 | 46.10421 | -45.11562 | 36469 ft | 489 kts | 77° |
| 2026-04-25 16:57 | 46.12307 | -45.02136 | 36469 ft | 490 kts | 77° |
| 2026-04-25 16:58 | 46.14174 | -44.92762 | 36468 ft | 490 kts | 78° |
| 2026-04-25 16:58 | 46.16046 | -44.83312 | 36479 ft | 490 kts | 78° |
| 2026-04-25 16:59 | 46.17913 | -44.73851 | 36485 ft | 490 kts | 78° |
| 2026-04-25 16:59 | 46.19771 | -44.64384 | 36478 ft | 490 kts | 78° |
| 2026-04-25 17:00 | 46.21626 | -44.54886 | 36490 ft | 494 kts | 78° |
| 2026-04-25 17:00 | 46.23497 | -44.45239 | 36495 ft | 503 kts | 78° |
| 2026-04-25 17:01 | 46.25381 | -44.35505 | 36494 ft | 502 kts | 78° |
| 2026-04-25 17:01 | 46.27252 | -44.25790 | 36490 ft | 502 kts | 78° |
| 2026-04-25 17:02 | 46.29115 | -44.16068 | 36501 ft | 502 kts | 78° |
| 2026-04-25 17:02 | 46.30965 | -44.06353 | 36484 ft | 501 kts | 78° |
| 2026-04-25 17:03 | 46.32794 | -43.96699 | 36500 ft | 502 kts | 78° |
| 2026-04-25 17:03 | 46.34632 | -43.86944 | 36504 ft | 503 kts | 79° |
| 2026-04-25 17:04 | 46.36463 | -43.77175 | 36502 ft | 502 kts | 79° |
| 2026-04-25 17:04 | 46.38285 | -43.67411 | 36509 ft | 502 kts | 79° |
| 2026-04-25 17:05 | 46.40097 | -43.57650 | 36509 ft | 502 kts | 79° |
| 2026-04-25 17:05 | 46.42799 | -43.42990 | 36520 ft | 502 kts | 79° |
| 2026-04-25 17:06 | 46.44591 | -43.33208 | 36518 ft | 502 kts | 79° |
| 2026-04-25 17:06 | 46.46374 | -43.23424 | 36520 ft | 502 kts | 79° |
| 2026-04-25 17:07 | 46.48149 | -43.13631 | 36523 ft | 502 kts | 79° |
| 2026-04-25 17:07 | 46.49915 | -43.03828 | 36518 ft | 503 kts | 80° |
| 2026-04-25 17:08 | 46.51677 | -42.93998 | 36530 ft | 503 kts | 80° |
| 2026-04-25 17:08 | 46.53430 | -42.84165 | 36528 ft | 503 kts | 80° |
| 2026-04-25 17:09 | 46.55174 | -42.74331 | 36527 ft | 503 kts | 80° |
| 2026-04-25 17:09 | 46.56907 | -42.64501 | 36542 ft | 503 kts | 80° |
| 2026-04-25 17:10 | 46.58633 | -42.54658 | 36519 ft | 502 kts | 80° |
| 2026-04-25 17:10 | 46.60351 | -42.44813 | 36536 ft | 502 kts | 81° |
| 2026-04-25 17:11 | 46.62046 | -42.35038 | 36537 ft | 502 kts | 81° |
| 2026-04-25 17:11 | 46.63744 | -42.25193 | 36543 ft | 502 kts | 81° |
| 2026-04-25 17:12 | 46.65443 | -42.15284 | 36547 ft | 502 kts | 81° |
| 2026-04-25 17:12 | 46.67113 | -42.05492 | 36548 ft | 502 kts | 81° |
| 2026-04-25 17:13 | 46.68232 | -41.98895 | 36551 ft | 502 kts | 81° |
| 2026-04-25 17:13 | 46.70453 | -41.85739 | 36553 ft | 502 kts | 81° |
| 2026-04-25 17:14 | 46.72110 | -41.75853 | 36556 ft | 502 kts | 81° |
| 2026-04-25 17:14 | 46.73759 | -41.65967 | 36557 ft | 502 kts | 81° |
| 2026-04-25 17:15 | 46.75396 | -41.56086 | 36563 ft | 501 kts | 81° |
| 2026-04-25 17:15 | 46.77024 | -41.46205 | 36565 ft | 501 kts | 81° |
| 2026-04-25 17:16 | 46.78370 | -41.37991 | 36574 ft | 501 kts | 82° |
| 2026-04-25 17:16 | 46.80244 | -41.26492 | 36570 ft | 501 kts | 82° |
| 2026-04-25 17:17 | 46.81843 | -41.16611 | 36574 ft | 500 kts | 82° |
| 2026-04-25 17:17 | 46.83177 | -41.08326 | 36581 ft | 501 kts | 82° |
| 2026-04-25 17:18 | 46.84764 | -40.98406 | 36588 ft | 502 kts | 82° |
| 2026-04-25 17:18 | 46.86336 | -40.88534 | 36561 ft | 502 kts | 82° |
| 2026-04-25 17:19 | 46.87911 | -40.78587 | 36586 ft | 502 kts | 82° |
| 2026-04-25 17:19 | 46.89486 | -40.68569 | 36594 ft | 502 kts | 82° |
| 2026-04-25 17:20 | 46.91042 | -40.58613 | 36595 ft | 502 kts | 82° |
| 2026-04-25 17:20 | 46.92578 | -40.48723 | 36603 ft | 502 kts | 83° |
| 2026-04-25 17:21 | 46.94117 | -40.38755 | 36600 ft | 502 kts | 83° |
| 2026-04-25 17:21 | 46.95647 | -40.28784 | 36608 ft | 502 kts | 83° |
| 2026-04-25 17:22 | 46.96923 | -40.20424 | 36612 ft | 502 kts | 83° |
| 2026-04-25 17:22 | 46.98681 | -40.08828 | 36608 ft | 503 kts | 83° |
| 2026-04-25 17:23 | 46.99970 | -39.98779 | 36614 ft | 499 kts | 91° |
| 2026-04-25 17:23 | 47.00531 | -39.88660 | 36617 ft | 498 kts | 92° |
| 2026-04-25 17:24 | 47.00954 | -39.78544 | 36626 ft | 498 kts | 93° |
| 2026-04-25 17:24 | 47.01351 | -39.68418 | 36626 ft | 498 kts | 93° |
| 2026-04-25 17:25 | 47.01751 | -39.58298 | 36621 ft | 498 kts | 93° |
| 2026-04-25 17:25 | 47.02149 | -39.48168 | 36634 ft | 499 kts | 93° |
| 2026-04-25 17:26 | 47.02542 | -39.38015 | 36608 ft | 499 kts | 93° |
| 2026-04-25 17:26 | 47.02926 | -39.27815 | 36631 ft | 502 kts | 93° |
| 2026-04-25 17:27 | 47.03304 | -39.17592 | 36633 ft | 503 kts | 93° |
| 2026-04-25 17:27 | 47.03612 | -39.09087 | 36639 ft | 503 kts | 93° |
| 2026-04-25 17:28 | 47.04033 | -38.97126 | 36639 ft | 503 kts | 92° |
| 2026-04-25 17:28 | 47.04383 | -38.86891 | 36639 ft | 503 kts | 92° |
| 2026-04-25 17:29 | 47.04723 | -38.76660 | 36644 ft | 503 kts | 93° |
| 2026-04-25 17:29 | 47.05052 | -38.66496 | 36619 ft | 502 kts | 92° |
| 2026-04-25 17:30 | 47.05374 | -38.56249 | 36648 ft | 503 kts | 93° |
| 2026-04-25 17:30 | 47.05689 | -38.46011 | 36652 ft | 501 kts | 93° |
| 2026-04-25 17:31 | 47.05993 | -38.35834 | 36654 ft | 501 kts | 93° |
| 2026-04-25 17:31 | 47.06285 | -38.25605 | 36652 ft | 501 kts | 93° |
| 2026-04-25 17:32 | 47.06571 | -38.15417 | 36659 ft | 499 kts | 93° |
| 2026-04-25 17:32 | 47.06846 | -38.05262 | 36658 ft | 498 kts | 93° |
| 2026-04-25 17:33 | 47.07111 | -37.95109 | 36644 ft | 497 kts | 93° |
| 2026-04-25 17:33 | 47.07366 | -37.84969 | 36679 ft | 498 kts | 93° |
| 2026-04-25 17:34 | 47.07614 | -37.74806 | 36667 ft | 499 kts | 93° |
| 2026-04-25 17:34 | 47.07853 | -37.64636 | 36669 ft | 499 kts | 93° |
| 2026-04-25 17:35 | 47.08083 | -37.54466 | 36656 ft | 499 kts | 93° |
| 2026-04-25 17:35 | 47.08304 | -37.44312 | 36682 ft | 497 kts | 93° |
| 2026-04-25 17:36 | 47.08516 | -37.34190 | 36690 ft | 496 kts | 93° |
| 2026-04-25 17:36 | 47.08717 | -37.24074 | 36691 ft | 496 kts | 93° |
| 2026-04-25 17:37 | 47.08909 | -37.13950 | 36695 ft | 496 kts | 94° |
| 2026-04-25 17:37 | 47.09093 | -37.03834 | 36683 ft | 496 kts | 94° |
| 2026-04-25 17:38 | 47.09240 | -36.95435 | 36703 ft | 494 kts | 94° |
| 2026-04-25 17:38 | 47.09433 | -36.83734 | 36704 ft | 493 kts | 94° |
| 2026-04-25 17:39 | 47.09589 | -36.73670 | 36714 ft | 493 kts | 94° |
| 2026-04-25 17:39 | 47.09737 | -36.63596 | 36719 ft | 493 kts | 94° |
| 2026-04-25 17:40 | 47.09875 | -36.53539 | 36681 ft | 493 kts | 94° |
| 2026-04-25 17:40 | 47.10005 | -36.43463 | 36738 ft | 494 kts | 94° |
| 2026-04-25 17:41 | 47.10126 | -36.33379 | 36737 ft | 494 kts | 94° |
| 2026-04-25 17:41 | 47.10239 | -36.23297 | 36748 ft | 494 kts | 94° |
| 2026-04-25 17:42 | 47.10343 | -36.13218 | 36740 ft | 494 kts | 94° |
| 2026-04-25 17:42 | 47.10438 | -36.03138 | 36736 ft | 494 kts | 94° |
| 2026-04-25 17:43 | 47.10524 | -35.93076 | 36746 ft | 493 kts | 94° |
| 2026-04-25 17:43 | 47.10601 | -35.83019 | 36760 ft | 492 kts | 94° |
| 2026-04-25 17:44 | 47.10669 | -35.72969 | 36765 ft | 493 kts | 94° |
| 2026-04-25 17:44 | 47.10728 | -35.62905 | 36774 ft | 493 kts | 94° |
| 2026-04-25 17:45 | 47.10763 | -35.56170 | 36776 ft | 493 kts | 94° |
| 2026-04-25 17:45 | 47.10821 | -35.42771 | 36780 ft | 493 kts | 94° |
| 2026-04-25 17:46 | 47.10854 | -35.32707 | 36790 ft | 493 kts | 95° |
| 2026-04-25 17:46 | 47.10878 | -35.22643 | 36783 ft | 493 kts | 95° |
| 2026-04-25 17:47 | 47.10894 | -35.12579 | 36786 ft | 493 kts | 95° |
| 2026-04-25 17:47 | 47.10900 | -35.02507 | 36792 ft | 493 kts | 94° |
| 2026-04-25 17:48 | 47.10893 | -34.87447 | 36801 ft | 494 kts | 95° |
| 2026-04-25 17:49 | 47.10878 | -34.77365 | 36812 ft | 494 kts | 95° |
| 2026-04-25 17:49 | 47.10854 | -34.67277 | 36812 ft | 494 kts | 95° |
| 2026-04-25 17:50 | 47.10821 | -34.57183 | 36822 ft | 494 kts | 95° |
| 2026-04-25 17:50 | 47.10778 | -34.47094 | 36825 ft | 494 kts | 95° |
| 2026-04-25 17:51 | 47.10728 | -34.37022 | 36815 ft | 493 kts | 95° |
| 2026-04-25 17:51 | 47.10668 | -34.26940 | 36837 ft | 494 kts | 95° |
| 2026-04-25 17:52 | 47.10599 | -34.16862 | 36850 ft | 494 kts | 95° |
| 2026-04-25 17:52 | 47.10522 | -34.06781 | 36844 ft | 494 kts | 95° |
| 2026-04-25 17:53 | 47.10436 | -33.96705 | 36855 ft | 493 kts | 95° |
| 2026-04-25 17:53 | 47.10342 | -33.86660 | 36862 ft | 492 kts | 95° |
| 2026-04-25 17:54 | 47.10238 | -33.76626 | 36867 ft | 492 kts | 95° |
| 2026-04-25 17:54 | 47.10125 | -33.66576 | 36855 ft | 492 kts | 95° |
| 2026-04-25 17:55 | 47.10003 | -33.56532 | 36884 ft | 492 kts | 95° |
| 2026-04-25 17:55 | 47.09874 | -33.46488 | 36884 ft | 491 kts | 95° |
| 2026-04-25 17:56 | 47.09737 | -33.36486 | 36897 ft | 490 kts | 95° |
| 2026-04-25 17:56 | 47.09590 | -33.26494 | 36896 ft | 490 kts | 95° |
| 2026-04-25 17:57 | 47.09435 | -33.16496 | 36904 ft | 490 kts | 95° |
| 2026-04-25 17:57 | 47.09270 | -33.06504 | 36907 ft | 490 kts | 95° |
| 2026-04-25 17:58 | 47.09098 | -32.96524 | 36924 ft | 488 kts | 95° |
| 2026-04-25 17:58 | 47.08918 | -32.86572 | 36919 ft | 487 kts | 95° |
| 2026-04-25 17:59 | 47.08730 | -32.76714 | 36936 ft | 487 kts | 95° |
| 2026-04-25 17:59 | 47.08532 | -32.66783 | 36936 ft | 487 kts | 95° |
| 2026-04-25 18:00 | 47.08326 | -32.56854 | 36939 ft | 487 kts | 95° |
| 2026-04-25 18:00 | 47.08111 | -32.46918 | 36945 ft | 487 kts | 95° |
| 2026-04-25 18:01 | 47.07889 | -32.36996 | 36945 ft | 487 kts | 95° |
| 2026-04-25 18:01 | 47.07657 | -32.27077 | 36948 ft | 486 kts | 95° |
| 2026-04-25 18:02 | 47.07417 | -32.17168 | 36959 ft | 486 kts | 95° |
| 2026-04-25 18:02 | 47.07169 | -32.07261 | 36961 ft | 486 kts | 95° |
| 2026-04-25 18:03 | 47.06912 | -31.97356 | 36965 ft | 486 kts | 96° |
| 2026-04-25 18:03 | 47.06647 | -31.87462 | 36972 ft | 485 kts | 96° |
| 2026-04-25 18:04 | 47.06374 | -31.77578 | 36977 ft | 485 kts | 96° |
| 2026-04-25 18:04 | 47.06140 | -31.69360 | 36978 ft | 485 kts | 96° |
| 2026-04-25 18:05 | 47.05850 | -31.59474 | 36988 ft | 485 kts | 96° |
| 2026-04-25 18:05 | 47.05553 | -31.49600 | 36971 ft | 485 kts | 96° |
| 2026-04-25 18:06 | 47.05246 | -31.39710 | 36991 ft | 485 kts | 96° |
| 2026-04-25 18:06 | 47.04932 | -31.29821 | 37003 ft | 485 kts | 96° |
| 2026-04-25 18:07 | 47.04609 | -31.19938 | 37013 ft | 485 kts | 96° |
| 2026-04-25 18:07 | 47.04278 | -31.10061 | 37006 ft | 485 kts | 96° |
| 2026-04-25 18:08 | 47.03939 | -31.00243 | 37020 ft | 485 kts | 96° |
| 2026-04-25 18:08 | 47.03590 | -30.90358 | 37020 ft | 486 kts | 96° |
| 2026-04-25 18:09 | 47.03233 | -30.80462 | 37023 ft | 486 kts | 96° |
| 2026-04-25 18:09 | 47.02866 | -30.70570 | 37026 ft | 486 kts | 96° |
| 2026-04-25 18:10 | 47.02492 | -30.60678 | 37029 ft | 486 kts | 96° |
| 2026-04-25 18:10 | 47.02109 | -30.50785 | 37041 ft | 486 kts | 96° |
| 2026-04-25 18:11 | 47.01717 | -30.40896 | 37039 ft | 486 kts | 96° |
| 2026-04-25 18:11 | 47.01316 | -30.31006 | 37024 ft | 486 kts | 96° |
| 2026-04-25 18:12 | 47.00908 | -30.21119 | 37035 ft | 486 kts | 96° |
| 2026-04-25 18:12 | 47.00490 | -30.11228 | 37035 ft | 486 kts | 96° |
| 2026-04-25 18:13 | 47.00104 | -30.01345 | 37043 ft | 487 kts | 92° |
| 2026-04-25 18:13 | 47.00360 | -29.91401 | 37050 ft | 489 kts | 89° |
| 2026-04-25 18:14 | 47.00989 | -29.76483 | 37052 ft | 489 kts | 88° |
| 2026-04-25 18:14 | 47.01414 | -29.66530 | 37054 ft | 489 kts | 88° |
| 2026-04-25 18:15 | 47.01818 | -29.56641 | 37051 ft | 489 kts | 88° |
| 2026-04-25 18:15 | 47.02210 | -29.46674 | 37061 ft | 490 kts | 88° |
| 2026-04-25 18:16 | 47.02594 | -29.36689 | 37057 ft | 491 kts | 88° |
| 2026-04-25 18:17 | 47.03155 | -29.21709 | 37057 ft | 491 kts | 88° |
| 2026-04-25 18:17 | 47.03517 | -29.11726 | 37060 ft | 491 kts | 88° |
| 2026-04-25 18:18 | 47.03871 | -29.01734 | 37070 ft | 491 kts | 88° |
| 2026-04-25 18:18 | 47.04218 | -28.91733 | 37076 ft | 491 kts | 88° |
| 2026-04-25 18:19 | 47.04555 | -28.81724 | 37075 ft | 491 kts | 88° |
| 2026-04-25 18:19 | 47.04885 | -28.71665 | 37079 ft | 499 kts | 88° |
| 2026-04-25 18:20 | 47.05212 | -28.61388 | 37077 ft | 510 kts | 88° |
| 2026-04-25 18:20 | 47.05538 | -28.50894 | 37082 ft | 520 kts | 88° |
| 2026-04-25 18:21 | 47.05859 | -28.40273 | 37087 ft | 521 kts | 88° |
| 2026-04-25 18:21 | 47.06170 | -28.29664 | 37091 ft | 520 kts | 88° |
| 2026-04-25 18:22 | 47.06469 | -28.19065 | 37072 ft | 520 kts | 88° |
| 2026-04-25 18:22 | 47.06757 | -28.08521 | 37090 ft | 521 kts | 88° |
| 2026-04-25 18:23 | 47.07038 | -27.97906 | 37096 ft | 521 kts | 88° |
| 2026-04-25 18:23 | 47.07309 | -27.87288 | 37096 ft | 521 kts | 88° |
| 2026-04-25 18:24 | 47.07570 | -27.76664 | 37097 ft | 521 kts | 88° |
| 2026-04-25 18:24 | 47.07820 | -27.66053 | 37095 ft | 520 kts | 88° |
| 2026-04-25 18:25 | 47.08061 | -27.55445 | 37097 ft | 520 kts | 88° |
| 2026-04-25 18:25 | 47.08292 | -27.44839 | 37097 ft | 520 kts | 88° |
| 2026-04-25 18:26 | 47.08514 | -27.34236 | 37099 ft | 520 kts | 88° |
| 2026-04-25 18:26 | 47.08724 | -27.23634 | 37100 ft | 519 kts | 88° |
| 2026-04-25 18:27 | 47.08925 | -27.13054 | 37103 ft | 518 kts | 88° |
| 2026-04-25 18:27 | 47.09117 | -27.02482 | 37102 ft | 518 kts | 88° |
| 2026-04-25 18:28 | 47.09298 | -26.91914 | 37099 ft | 518 kts | 88° |
| 2026-04-25 18:28 | 47.09469 | -26.81412 | 37104 ft | 517 kts | 88° |
| 2026-04-25 18:29 | 47.09708 | -26.65605 | 37106 ft | 516 kts | 88° |
| 2026-04-25 18:30 | 47.09992 | -26.44544 | 37109 ft | 516 kts | 89° |
| 2026-04-25 18:30 | 47.10120 | -26.34007 | 37107 ft | 516 kts | 89° |
| 2026-04-25 18:31 | 47.10238 | -26.23484 | 37096 ft | 515 kts | 89° |
| 2026-04-25 18:31 | 47.10346 | -26.12971 | 37107 ft | 515 kts | 89° |
| 2026-04-25 18:32 | 47.10444 | -26.02455 | 37108 ft | 515 kts | 89° |
| 2026-04-25 18:32 | 47.10533 | -25.91939 | 37103 ft | 515 kts | 89° |
| 2026-04-25 18:33 | 47.10613 | -25.81427 | 37104 ft | 515 kts | 89° |
| 2026-04-25 18:33 | 47.10682 | -25.70912 | 37100 ft | 515 kts | 89° |
| 2026-04-25 18:34 | 47.10742 | -25.60462 | 37107 ft | 515 kts | 89° |
| 2026-04-25 18:34 | 47.10792 | -25.49945 | 37108 ft | 515 kts | 89° |
| 2026-04-25 18:35 | 47.10833 | -25.39439 | 37105 ft | 515 kts | 89° |
| 2026-04-25 18:35 | 47.10864 | -25.28924 | 37105 ft | 515 kts | 89° |
| 2026-04-25 18:36 | 47.10886 | -25.18414 | 37105 ft | 515 kts | 89° |
| 2026-04-25 18:36 | 47.10898 | -25.07899 | 37105 ft | 515 kts | 89° |
| 2026-04-25 18:37 | 47.10900 | -24.97385 | 37105 ft | 515 kts | 89° |
| 2026-04-25 18:37 | 47.10893 | -24.86874 | 37105 ft | 515 kts | 89° |
| 2026-04-25 18:38 | 47.10876 | -24.76364 | 37105 ft | 515 kts | 89° |
| 2026-04-25 18:38 | 47.10850 | -24.65862 | 37105 ft | 515 kts | 89° |
| 2026-04-25 18:39 | 47.10813 | -24.55349 | 37104 ft | 514 kts | 89° |
| 2026-04-25 18:39 | 47.10768 | -24.44930 | 37103 ft | 514 kts | 90° |
| 2026-04-25 18:40 | 47.10712 | -24.34381 | 37101 ft | 513 kts | 90° |
| 2026-04-25 18:40 | 47.10648 | -24.23969 | 37099 ft | 514 kts | 90° |
| 2026-04-25 18:41 | 47.10574 | -24.13483 | 37115 ft | 514 kts | 90° |
| 2026-04-25 18:41 | 47.10490 | -24.03005 | 37099 ft | 513 kts | 90° |
| 2026-04-25 18:42 | 47.10429 | -23.95993 | 37101 ft | 513 kts | 90° |
| 2026-04-25 18:42 | 47.10294 | -23.82048 | 37097 ft | 513 kts | 90° |
| 2026-04-25 18:43 | 47.10182 | -23.71572 | 37096 ft | 513 kts | 90° |
| 2026-04-25 18:43 | 47.10059 | -23.61095 | 37095 ft | 513 kts | 90° |
| 2026-04-25 18:44 | 47.09928 | -23.50619 | 37093 ft | 514 kts | 90° |
| 2026-04-25 18:44 | 47.09787 | -23.40139 | 37095 ft | 514 kts | 90° |
| 2026-04-25 18:45 | 47.09636 | -23.29660 | 37091 ft | 514 kts | 90° |
| 2026-04-25 18:45 | 47.09476 | -23.19172 | 37093 ft | 514 kts | 90° |
| 2026-04-25 18:46 | 47.09307 | -23.08754 | 37086 ft | 514 kts | 90° |
| 2026-04-25 18:46 | 47.09127 | -22.98265 | 37086 ft | 514 kts | 90° |
| 2026-04-25 18:47 | 47.08938 | -22.87785 | 37086 ft | 514 kts | 90° |
| 2026-04-25 18:47 | 47.08740 | -22.77296 | 37093 ft | 514 kts | 91° |
| 2026-04-25 18:48 | 47.08532 | -22.66812 | 37085 ft | 513 kts | 91° |
| 2026-04-25 18:48 | 47.08314 | -22.56346 | 37082 ft | 513 kts | 91° |
| 2026-04-25 18:49 | 47.08087 | -22.45877 | 37079 ft | 513 kts | 91° |
| 2026-04-25 18:49 | 47.07851 | -22.35414 | 37067 ft | 513 kts | 91° |
| 2026-04-25 18:50 | 47.07605 | -22.24936 | 37071 ft | 514 kts | 91° |
| 2026-04-25 18:50 | 47.07349 | -22.14450 | 37073 ft | 514 kts | 91° |
| 2026-04-25 18:51 | 47.07172 | -22.07430 | 37073 ft | 514 kts | 91° |
| 2026-04-25 18:51 | 47.06808 | -21.93471 | 37067 ft | 515 kts | 92° |
| 2026-04-25 18:52 | 47.06523 | -21.82984 | 37062 ft | 515 kts | 92° |
| 2026-04-25 18:52 | 47.06230 | -21.72554 | 37057 ft | 515 kts | 92° |
| 2026-04-25 18:53 | 47.05926 | -21.62061 | 37061 ft | 515 kts | 92° |
| 2026-04-25 18:53 | 47.05612 | -21.51567 | 37063 ft | 515 kts | 92° |
| 2026-04-25 18:54 | 47.05123 | -21.35823 | 37052 ft | 515 kts | 92° |
| 2026-04-25 18:55 | 47.04785 | -21.25319 | 37058 ft | 516 kts | 92° |
| 2026-04-25 18:55 | 47.04437 | -21.14798 | 37055 ft | 517 kts | 93° |
| 2026-04-25 18:56 | 47.04079 | -21.04277 | 37060 ft | 517 kts | 93° |
| 2026-04-25 18:56 | 47.03711 | -20.93760 | 37055 ft | 516 kts | 93° |
| 2026-04-25 18:57 | 47.03399 | -20.85037 | 37053 ft | 515 kts | 93° |
| 2026-04-25 18:57 | 47.03015 | -20.74559 | 37056 ft | 515 kts | 93° |
| 2026-04-25 18:58 | 47.02622 | -20.64085 | 37056 ft | 515 kts | 93° |
| 2026-04-25 18:58 | 47.02014 | -20.48374 | 37054 ft | 515 kts | 94° |
| 2026-04-25 18:59 | 47.01171 | -20.27461 | 37057 ft | 514 kts | 94° |
| 2026-04-25 19:00 | 47.00513 | -20.11794 | 37059 ft | 514 kts | 94° |
| 2026-04-25 19:01 | 47.00113 | -19.96101 | 37059 ft | 514 kts | 90° |
| 2026-04-25 19:01 | 47.00285 | -19.85653 | 37052 ft | 513 kts | 89° |
| 2026-04-25 19:02 | 47.00612 | -19.70042 | 37061 ft | 513 kts | 89° |
| 2026-04-25 19:03 | 47.00881 | -19.56059 | 37058 ft | 513 kts | 89° |
| 2026-04-25 19:03 | 47.01092 | -19.43935 | 37060 ft | 512 kts | 90° |
| 2026-04-25 19:04 | 47.01345 | -19.28276 | 37061 ft | 512 kts | 90° |
| 2026-04-25 19:05 | 47.01651 | -19.07379 | 37069 ft | 513 kts | 90° |
| 2026-04-25 19:06 | 47.01789 | -18.96925 | 37076 ft | 513 kts | 90° |
| 2026-04-25 19:06 | 47.01979 | -18.81248 | 37074 ft | 513 kts | 90° |
| 2026-04-25 19:07 | 47.02148 | -18.65570 | 37087 ft | 513 kts | 91° |
| 2026-04-25 19:08 | 47.02294 | -18.49913 | 37088 ft | 512 kts | 91° |
| 2026-04-25 19:09 | 47.02445 | -18.30793 | 37096 ft | 512 kts | 91° |
| 2026-04-25 19:10 | 47.02554 | -18.13391 | 37102 ft | 511 kts | 91° |
| 2026-04-25 19:10 | 47.02606 | -18.02968 | 37102 ft | 512 kts | 91° |
| 2026-04-25 19:11 | 47.02650 | -17.92542 | 37109 ft | 512 kts | 92° |
| 2026-04-25 19:11 | 47.02684 | -17.82195 | 37117 ft | 511 kts | 92° |
| 2026-04-25 19:12 | 47.02708 | -17.71764 | 37114 ft | 512 kts | 92° |
| 2026-04-25 19:12 | 47.02723 | -17.61326 | 37121 ft | 512 kts | 92° |
| 2026-04-25 19:13 | 47.02729 | -17.50894 | 37122 ft | 512 kts | 92° |
| 2026-04-25 19:13 | 47.02725 | -17.40472 | 37132 ft | 511 kts | 93° |
| 2026-04-25 19:14 | 47.02712 | -17.30056 | 37139 ft | 511 kts | 93° |
| 2026-04-25 19:14 | 47.02689 | -17.19643 | 37138 ft | 511 kts | 93° |
| 2026-04-25 19:15 | 47.02656 | -17.09222 | 37146 ft | 511 kts | 93° |
| 2026-04-25 19:15 | 47.02615 | -16.98801 | 37145 ft | 511 kts | 93° |
| 2026-04-25 19:16 | 47.02563 | -16.88388 | 37152 ft | 511 kts | 93° |
| 2026-04-25 19:16 | 47.02503 | -16.77968 | 37154 ft | 511 kts | 93° |
| 2026-04-25 19:17 | 47.02433 | -16.67552 | 37155 ft | 511 kts | 93° |
| 2026-04-25 19:17 | 47.02355 | -16.57205 | 37159 ft | 511 kts | 94° |
| 2026-04-25 19:18 | 47.02266 | -16.46803 | 37150 ft | 511 kts | 94° |
| 2026-04-25 19:18 | 47.02167 | -16.36373 | 37161 ft | 512 kts | 94° |
| 2026-04-25 19:19 | 47.02058 | -16.25926 | 37167 ft | 512 kts | 94° |
| 2026-04-25 19:19 | 47.01941 | -16.15492 | 37175 ft | 512 kts | 94° |
| 2026-04-25 19:20 | 47.01815 | -16.05058 | 37176 ft | 512 kts | 95° |
| 2026-04-25 19:20 | 47.01678 | -15.94616 | 37181 ft | 512 kts | 95° |
| 2026-04-25 19:21 | 47.01532 | -15.84187 | 37183 ft | 512 kts | 95° |
| 2026-04-25 19:21 | 47.01296 | -15.68541 | 37186 ft | 512 kts | 95° |
| 2026-04-25 19:22 | 47.01127 | -15.58185 | 37186 ft | 512 kts | 95° |
| 2026-04-25 19:23 | 47.00855 | -15.42541 | 37192 ft | 512 kts | 95° |
| 2026-04-25 19:23 | 47.00562 | -15.26906 | 37194 ft | 511 kts | 95° |
| 2026-04-25 19:24 | 47.00355 | -15.16507 | 37195 ft | 511 kts | 95° |
| 2026-04-25 19:25 | 46.99958 | -14.95678 | 37197 ft | 513 kts | 93° |
| 2026-04-25 19:25 | 47.00226 | -14.85228 | 37202 ft | 514 kts | 90° |
| 2026-04-25 19:26 | 47.00611 | -14.74776 | 37202 ft | 513 kts | 90° |
| 2026-04-25 19:26 | 47.00924 | -14.64331 | 37206 ft | 513 kts | 91° |
| 2026-04-25 19:27 | 47.01140 | -14.55644 | 37211 ft | 513 kts | 91° |
| 2026-04-25 19:27 | 47.01413 | -14.43436 | 37210 ft | 513 kts | 91° |
| 2026-04-25 19:28 | 47.01638 | -14.32998 | 37214 ft | 512 kts | 91° |
| 2026-04-25 19:28 | 47.01855 | -14.22566 | 37214 ft | 512 kts | 91° |
| 2026-04-25 19:29 | 47.02064 | -14.12133 | 37213 ft | 512 kts | 92° |
| 2026-04-25 19:29 | 47.02263 | -14.01690 | 37224 ft | 512 kts | 91° |
| 2026-04-25 19:30 | 47.02453 | -13.91258 | 37224 ft | 512 kts | 91° |
| 2026-04-25 19:30 | 47.02634 | -13.80823 | 37222 ft | 512 kts | 92° |
| 2026-04-25 19:31 | 47.02804 | -13.70459 | 37227 ft | 512 kts | 92° |
| 2026-04-25 19:31 | 47.02965 | -13.60030 | 37214 ft | 512 kts | 91° |
| 2026-04-25 19:32 | 47.03116 | -13.49597 | 37222 ft | 512 kts | 91° |
| 2026-04-25 19:32 | 47.03213 | -13.42621 | 37218 ft | 512 kts | 92° |
| 2026-04-25 19:33 | 47.03392 | -13.28737 | 37228 ft | 512 kts | 92° |
| 2026-04-25 19:33 | 47.03515 | -13.18314 | 37224 ft | 511 kts | 91° |
| 2026-04-25 19:34 | 47.03629 | -13.07915 | 37228 ft | 510 kts | 92° |
| 2026-04-25 19:34 | 47.03734 | -12.97518 | 37227 ft | 510 kts | 92° |
| 2026-04-25 19:35 | 47.03828 | -12.87125 | 37230 ft | 510 kts | 92° |
| 2026-04-25 19:35 | 47.03914 | -12.76738 | 37230 ft | 510 kts | 92° |
| 2026-04-25 19:36 | 47.03990 | -12.66339 | 37232 ft | 510 kts | 92° |
| 2026-04-25 19:36 | 47.04056 | -12.55953 | 37233 ft | 510 kts | 92° |
| 2026-04-25 19:37 | 47.04113 | -12.45563 | 37233 ft | 510 kts | 92° |
| 2026-04-25 19:37 | 47.04161 | -12.35175 | 37231 ft | 509 kts | 92° |
| 2026-04-25 19:38 | 47.04199 | -12.24795 | 37236 ft | 509 kts | 92° |
| 2026-04-25 19:38 | 47.04228 | -12.14479 | 37235 ft | 509 kts | 92° |
| 2026-04-25 19:39 | 47.04248 | -12.04101 | 37236 ft | 509 kts | 92° |
| 2026-04-25 19:39 | 47.04258 | -11.93728 | 37234 ft | 509 kts | 92° |
| 2026-04-25 19:40 | 47.04259 | -11.83350 | 37233 ft | 509 kts | 92° |
| 2026-04-25 19:40 | 47.04251 | -11.72972 | 37238 ft | 509 kts | 92° |
| 2026-04-25 19:41 | 47.04233 | -11.62596 | 37241 ft | 509 kts | 93° |
| 2026-04-25 19:41 | 47.04216 | -11.55651 | 37226 ft | 509 kts | 93° |
| 2026-04-25 19:42 | 47.04169 | -11.41829 | 37243 ft | 509 kts | 93° |
| 2026-04-25 19:42 | 47.04123 | -11.31447 | 37242 ft | 509 kts | 93° |
| 2026-04-25 19:43 | 47.04068 | -11.21070 | 37237 ft | 509 kts | 93° |
| 2026-04-25 19:43 | 47.04003 | -11.10678 | 37237 ft | 509 kts | 93° |
| 2026-04-25 19:44 | 47.03929 | -11.00309 | 37243 ft | 509 kts | 94° |
| 2026-04-25 19:44 | 47.03846 | -10.89930 | 37243 ft | 509 kts | 94° |
| 2026-04-25 19:45 | 47.03753 | -10.79562 | 37242 ft | 509 kts | 94° |
| 2026-04-25 19:45 | 47.03651 | -10.69196 | 37241 ft | 509 kts | 94° |
| 2026-04-25 19:46 | 47.03539 | -10.58809 | 37241 ft | 509 kts | 94° |
| 2026-04-25 19:46 | 47.03419 | -10.48497 | 37241 ft | 509 kts | 94° |
| 2026-04-25 19:47 | 47.03289 | -10.38118 | 37242 ft | 510 kts | 94° |
| 2026-04-25 19:47 | 47.03149 | -10.27731 | 37242 ft | 510 kts | 94° |
| 2026-04-25 19:48 | 47.03024 | -10.19021 | 37239 ft | 510 kts | 94° |
| 2026-04-25 19:48 | 47.02867 | -10.08630 | 37241 ft | 510 kts | 94° |
| 2026-04-25 19:49 | 47.02729 | -9.99991 | 37239 ft | 510 kts | 94° |
| 2026-04-25 19:49 | 47.02526 | -9.87909 | 37237 ft | 510 kts | 94° |
| 2026-04-25 19:50 | 47.02244 | -9.72326 | 37244 ft | 510 kts | 94° |
| 2026-04-25 19:51 | 47.02045 | -9.61944 | 37239 ft | 510 kts | 94° |
| 2026-04-25 19:51 | 47.01836 | -9.51557 | 37237 ft | 510 kts | 94° |
| 2026-04-25 19:52 | 47.01617 | -9.41171 | 37238 ft | 510 kts | 94° |
| 2026-04-25 19:52 | 47.01390 | -9.30787 | 37240 ft | 510 kts | 94° |
| 2026-04-25 19:53 | 47.01153 | -9.20409 | 37234 ft | 510 kts | 94° |
| 2026-04-25 19:53 | 47.00908 | -9.10040 | 37239 ft | 509 kts | 94° |
| 2026-04-25 19:54 | 47.00652 | -8.99676 | 37239 ft | 509 kts | 94° |
| 2026-04-25 19:54 | 47.00387 | -8.89307 | 37239 ft | 510 kts | 94° |
| 2026-04-25 19:55 | 47.00115 | -8.78994 | 37238 ft | 510 kts | 94° |
| 2026-04-25 19:55 | 46.99900 | -8.68611 | 37239 ft | 510 kts | 92° |
| 2026-04-25 19:56 | 46.99956 | -8.58220 | 37237 ft | 511 kts | 91° |
| 2026-04-25 19:56 | 47.00039 | -8.47817 | 37238 ft | 510 kts | 91° |
| 2026-04-25 19:57 | 47.00071 | -8.37419 | 37238 ft | 510 kts | 91° |
| 2026-04-25 19:57 | 47.00069 | -8.27023 | 37239 ft | 510 kts | 91° |
| 2026-04-25 19:58 | 47.00051 | -8.16625 | 37236 ft | 510 kts | 91° |
| 2026-04-25 19:58 | 47.00026 | -8.06231 | 37238 ft | 510 kts | 91° |
| 2026-04-25 19:59 | 46.99405 | -7.95922 | 37241 ft | 508 kts | 101° |
| 2026-04-25 19:59 | 46.98093 | -7.85769 | 37240 ft | 508 kts | 103° |
| 2026-04-25 20:00 | 46.96909 | -7.77356 | 37233 ft | 508 kts | 103° |
| 2026-04-25 20:00 | 46.95237 | -7.65598 | 37245 ft | 508 kts | 103° |
| 2026-04-25 20:01 | 46.93087 | -7.50424 | 37237 ft | 507 kts | 103° |
| 2026-04-25 20:01 | 46.91653 | -7.40338 | 37240 ft | 506 kts | 103° |
| 2026-04-25 20:02 | 46.90211 | -7.30267 | 37243 ft | 506 kts | 102° |
| 2026-04-25 20:02 | 46.88759 | -7.20198 | 37242 ft | 507 kts | 103° |
| 2026-04-25 20:03 | 46.87297 | -7.10121 | 37241 ft | 507 kts | 103° |
| 2026-04-25 20:03 | 46.85825 | -7.00044 | 37235 ft | 507 kts | 103° |
| 2026-04-25 20:04 | 46.84344 | -6.89978 | 37234 ft | 506 kts | 102° |
| 2026-04-25 20:04 | 46.82859 | -6.79948 | 37238 ft | 505 kts | 103° |
| 2026-04-25 20:05 | 46.81366 | -6.69923 | 37238 ft | 505 kts | 103° |
| 2026-04-25 20:05 | 46.79864 | -6.59905 | 37234 ft | 505 kts | 103° |
| 2026-04-25 20:06 | 46.78354 | -6.49902 | 37233 ft | 505 kts | 102° |
| 2026-04-25 20:06 | 46.76835 | -6.39900 | 37239 ft | 505 kts | 102° |
| 2026-04-25 20:07 | 46.75309 | -6.29911 | 37225 ft | 504 kts | 102° |
| 2026-04-25 20:07 | 46.73775 | -6.19935 | 37236 ft | 504 kts | 103° |
| 2026-04-25 20:08 | 46.72232 | -6.09964 | 37227 ft | 504 kts | 103° |
| 2026-04-25 20:08 | 46.70692 | -6.00068 | 37226 ft | 505 kts | 102° |
| 2026-04-25 20:09 | 46.69131 | -5.90101 | 37219 ft | 505 kts | 102° |
| 2026-04-25 20:09 | 46.67561 | -5.80140 | 37227 ft | 505 kts | 102° |
| 2026-04-25 20:10 | 46.65983 | -5.70191 | 37220 ft | 505 kts | 102° |
| 2026-04-25 20:10 | 46.64396 | -5.60242 | 37219 ft | 504 kts | 102° |
| 2026-04-25 20:11 | 46.62802 | -5.50309 | 37214 ft | 504 kts | 102° |
| 2026-04-25 20:11 | 46.61200 | -5.40383 | 37218 ft | 504 kts | 102° |
| 2026-04-25 20:12 | 46.59589 | -5.30462 | 37217 ft | 504 kts | 102° |
| 2026-04-25 20:12 | 46.58519 | -5.23904 | 37226 ft | 504 kts | 102° |
| 2026-04-25 20:13 | 46.56344 | -5.10653 | 37216 ft | 504 kts | 102° |
| 2026-04-25 20:13 | 46.54719 | -5.00823 | 37219 ft | 504 kts | 103° |
| 2026-04-25 20:14 | 46.53074 | -4.90928 | 37210 ft | 504 kts | 103° |
| 2026-04-25 20:14 | 46.51422 | -4.81048 | 37210 ft | 504 kts | 103° |
| 2026-04-25 20:15 | 46.49764 | -4.71187 | 37210 ft | 503 kts | 103° |
| 2026-04-25 20:15 | 46.48096 | -4.61325 | 37208 ft | 503 kts | 103° |
| 2026-04-25 20:16 | 46.46421 | -4.51478 | 37205 ft | 502 kts | 103° |
| 2026-04-25 20:16 | 46.44740 | -4.41649 | 37198 ft | 502 kts | 103° |
| 2026-04-25 20:17 | 46.43053 | -4.31837 | 37204 ft | 502 kts | 103° |
| 2026-04-25 20:17 | 46.41354 | -4.22019 | 37211 ft | 502 kts | 103° |
| 2026-04-25 20:18 | 46.39649 | -4.12215 | 37205 ft | 502 kts | 103° |
| 2026-04-25 20:18 | 46.37935 | -4.02416 | 37207 ft | 502 kts | 103° |
| 2026-04-25 20:19 | 46.36214 | -3.92628 | 37201 ft | 502 kts | 103° |
| 2026-04-25 20:19 | 46.34494 | -3.82904 | 37191 ft | 502 kts | 103° |
| 2026-04-25 20:20 | 46.32756 | -3.73123 | 37194 ft | 502 kts | 103° |
| 2026-04-25 20:20 | 46.31009 | -3.63349 | 37182 ft | 502 kts | 103° |
| 2026-04-25 20:21 | 46.29255 | -3.53593 | 37196 ft | 501 kts | 103° |
| 2026-04-25 20:21 | 46.27495 | -3.43855 | 37192 ft | 501 kts | 103° |
| 2026-04-25 20:22 | 46.26313 | -3.37342 | 37189 ft | 501 kts | 103° |
| 2026-04-25 20:22 | 46.23951 | -3.24396 | 37186 ft | 501 kts | 103° |
| 2026-04-25 20:23 | 46.22167 | -3.14672 | 37192 ft | 501 kts | 103° |
| 2026-04-25 20:23 | 46.20374 | -3.04958 | 37180 ft | 501 kts | 103° |
| 2026-04-25 20:24 | 46.18573 | -2.95250 | 37179 ft | 501 kts | 103° |
| 2026-04-25 20:24 | 46.16763 | -2.85547 | 37182 ft | 501 kts | 103° |
| 2026-04-25 20:25 | 46.14946 | -2.75854 | 37185 ft | 501 kts | 104° |
| 2026-04-25 20:25 | 46.13120 | -2.66157 | 37185 ft | 501 kts | 104° |
| 2026-04-25 20:26 | 46.11286 | -2.56475 | 37184 ft | 500 kts | 104° |
| 2026-04-25 20:26 | 46.09445 | -2.46807 | 37181 ft | 500 kts | 104° |
| 2026-04-25 20:27 | 46.07609 | -2.37209 | 37189 ft | 500 kts | 104° |
| 2026-04-25 20:27 | 46.05751 | -2.27543 | 37184 ft | 501 kts | 104° |
| 2026-04-25 20:28 | 46.03882 | -2.17876 | 37184 ft | 501 kts | 104° |
| 2026-04-25 20:28 | 46.02492 | -2.08084 | 37186 ft | 499 kts | 92° |
| 2026-04-25 20:29 | 46.02223 | -1.98119 | 37182 ft | 498 kts | 89° |
| 2026-04-25 20:29 | 46.02240 | -1.88142 | 37181 ft | 499 kts | 88° |
| 2026-04-25 20:30 | 46.02268 | -1.78146 | 37182 ft | 500 kts | 88° |
| 2026-04-25 20:30 | 46.02253 | -1.68134 | 37178 ft | 500 kts | 89° |
| 2026-04-25 20:31 | 46.02210 | -1.58136 | 37183 ft | 500 kts | 89° |
| 2026-04-25 20:31 | 46.02155 | -1.48127 | 37178 ft | 501 kts | 89° |
| 2026-04-25 20:32 | 46.02091 | -1.38105 | 37179 ft | 501 kts | 89° |
| 2026-04-25 20:32 | 46.02020 | -1.28078 | 37181 ft | 501 kts | 89° |
| 2026-04-25 20:33 | 46.01941 | -1.18063 | 37187 ft | 501 kts | 89° |
| 2026-04-25 20:33 | 46.01884 | -1.11422 | 37178 ft | 501 kts | 90° |
| 2026-04-25 20:34 | 46.01757 | -0.98070 | 37175 ft | 501 kts | 90° |
| 2026-04-25 20:34 | 46.01651 | -0.88044 | 37167 ft | 501 kts | 90° |
| 2026-04-25 20:35 | 46.01537 | -0.78014 | 37177 ft | 501 kts | 90° |
| 2026-04-25 20:35 | 46.01414 | -0.67972 | 37175 ft | 502 kts | 90° |
| 2026-04-25 20:36 | 46.01281 | -0.57920 | 37170 ft | 503 kts | 90° |
| 2026-04-25 20:36 | 46.01140 | -0.47873 | 37170 ft | 503 kts | 90° |
| 2026-04-25 20:37 | 46.00990 | -0.37819 | 37168 ft | 503 kts | 90° |
| 2026-04-25 20:37 | 46.00831 | -0.27777 | 37171 ft | 503 kts | 90° |
| 2026-04-25 20:38 | 46.00664 | -0.17725 | 37175 ft | 503 kts | 90° |
| 2026-04-25 20:38 | 46.00487 | -0.07677 | 37174 ft | 503 kts | 90° |
| 2026-04-25 20:39 | 46.00304 | 0.02306 | 37171 ft | 503 kts | 91° |
| 2026-04-25 20:39 | 46.00175 | 0.09041 | 37172 ft | 504 kts | 91° |
| 2026-04-25 20:40 | 45.99906 | 0.22459 | 37171 ft | 504 kts | 91° |
| 2026-04-25 20:40 | 45.99693 | 0.32540 | 37171 ft | 504 kts | 91° |
| 2026-04-25 20:41 | 45.99473 | 0.42616 | 37171 ft | 505 kts | 91° |
| 2026-04-25 20:41 | 45.99282 | 0.51007 | 37163 ft | 505 kts | 91° |
| 2026-04-25 20:42 | 45.99044 | 0.61105 | 37162 ft | 506 kts | 91° |
| 2026-04-25 20:42 | 45.98797 | 0.71209 | 37158 ft | 506 kts | 91° |
| 2026-04-25 20:43 | 45.98542 | 0.81307 | 37157 ft | 506 kts | 92° |
| 2026-04-25 20:43 | 45.98277 | 0.91419 | 37163 ft | 506 kts | 92° |
| 2026-04-25 20:44 | 45.98002 | 1.01533 | 37178 ft | 506 kts | 92° |
| 2026-04-25 20:44 | 45.97719 | 1.11656 | 37175 ft | 507 kts | 92° |
| 2026-04-25 20:45 | 45.97427 | 1.21773 | 37182 ft | 507 kts | 92° |
| 2026-04-25 20:45 | 45.97127 | 1.31889 | 37169 ft | 507 kts | 92° |
| 2026-04-25 20:46 | 45.96817 | 1.42013 | 37176 ft | 507 kts | 92° |
| 2026-04-25 20:46 | 45.96497 | 1.52134 | 37168 ft | 507 kts | 93° |
| 2026-04-25 20:47 | 45.96161 | 1.62243 | 37156 ft | 507 kts | 94° |
| 2026-04-25 20:47 | 45.95408 | 1.72321 | 37155 ft | 507 kts | 98° |
| 2026-04-25 20:48 | 45.94475 | 1.82348 | 37156 ft | 507 kts | 98° |
| 2026-04-25 20:48 | 45.93510 | 1.92309 | 37155 ft | 507 kts | 98° |
| 2026-04-25 20:49 | 45.92543 | 2.02328 | 37150 ft | 506 kts | 99° |
| 2026-04-25 20:49 | 45.91577 | 2.12348 | 37152 ft | 506 kts | 99° |
| 2026-04-25 20:50 | 45.90606 | 2.22352 | 37149 ft | 506 kts | 99° |
| 2026-04-25 20:50 | 45.89627 | 2.32347 | 37147 ft | 506 kts | 99° |
| 2026-04-25 20:51 | 45.88638 | 2.42344 | 37148 ft | 505 kts | 99° |
| 2026-04-25 20:51 | 45.87641 | 2.52324 | 37147 ft | 505 kts | 99° |
| 2026-04-25 20:52 | 45.86807 | 2.60609 | 37145 ft | 505 kts | 99° |
| 2026-04-25 20:52 | 45.85624 | 2.72254 | 37143 ft | 505 kts | 99° |
| 2026-04-25 20:53 | 45.84602 | 2.82213 | 37151 ft | 504 kts | 99° |
| 2026-04-25 20:53 | 45.83572 | 2.92157 | 37154 ft | 504 kts | 99° |
| 2026-04-25 20:54 | 45.82534 | 3.02100 | 37156 ft | 504 kts | 99° |
| 2026-04-25 20:54 | 45.81435 | 3.12028 | 37157 ft | 504 kts | 100° |
| 2026-04-25 20:55 | 45.80299 | 3.21956 | 37154 ft | 505 kts | 100° |
| 2026-04-25 20:55 | 45.79160 | 3.31890 | 37155 ft | 505 kts | 100° |
| 2026-04-25 20:56 | 45.78020 | 3.41823 | 37148 ft | 505 kts | 100° |
| 2026-04-25 20:56 | 45.76873 | 3.51749 | 37144 ft | 505 kts | 100° |
| 2026-04-25 20:57 | 45.75726 | 3.61607 | 37143 ft | 505 kts | 100° |
| 2026-04-25 20:57 | 45.74561 | 3.71528 | 37141 ft | 505 kts | 100° |
| 2026-04-25 20:58 | 45.73389 | 3.81437 | 37137 ft | 505 kts | 100° |
| 2026-04-25 20:58 | 45.72208 | 3.91351 | 37138 ft | 505 kts | 100° |
| 2026-04-25 20:59 | 45.71019 | 4.01242 | 37143 ft | 504 kts | 100° |
| 2026-04-25 20:59 | 45.69823 | 4.11125 | 37143 ft | 504 kts | 100° |
| 2026-04-25 21:00 | 45.69017 | 4.17738 | 37149 ft | 505 kts | 100° |
| 2026-04-25 21:01 | 45.66790 | 4.35854 | 37153 ft | 504 kts | 100° |
| 2026-04-25 21:01 | 45.65568 | 4.45690 | 37149 ft | 502 kts | 100° |
| 2026-04-25 21:02 | 45.64339 | 4.55507 | 37143 ft | 502 kts | 100° |
| 2026-04-25 21:02 | 45.63102 | 4.65320 | 37134 ft | 502 kts | 100° |
| 2026-04-25 21:03 | 45.61858 | 4.75117 | 36866 ft | 500 kts | 100° |
| 2026-04-25 21:03 | 45.61237 | 4.79980 | 36270 ft | 497 kts | 100° |
| 2026-04-25 21:03 | 45.60615 | 4.84838 | 35498 ft | 497 kts | 100° |
| 2026-04-25 21:03 | 45.59989 | 4.89702 | 34706 ft | 499 kts | 100° |
| 2026-04-25 21:04 | 45.59360 | 4.94580 | 33885 ft | 501 kts | 99° |
| 2026-04-25 21:04 | 45.58726 | 4.99477 | 32973 ft | 502 kts | 99° |
| 2026-04-25 21:04 | 45.58087 | 5.04392 | 32064 ft | 504 kts | 99° |
| 2026-04-25 21:04 | 45.57445 | 5.09316 | 31202 ft | 505 kts | 99° |
| 2026-04-25 21:05 | 45.56809 | 5.14178 | 30542 ft | 507 kts | 99° |
| 2026-04-25 21:05 | 45.56156 | 5.19160 | 30190 ft | 514 kts | 99° |
| 2026-04-25 21:05 | 45.55494 | 5.24189 | 30122 ft | 517 kts | 99° |
| 2026-04-25 21:06 | 45.54160 | 5.34262 | 30124 ft | 516 kts | 99° |
| 2026-04-25 21:06 | 45.52820 | 5.44306 | 30127 ft | 516 kts | 99° |
| 2026-04-25 21:07 | 45.51471 | 5.54345 | 30110 ft | 514 kts | 100° |
| 2026-04-25 21:07 | 45.50118 | 5.64338 | 30102 ft | 513 kts | 101° |
| 2026-04-25 21:08 | 45.48758 | 5.74321 | 30114 ft | 513 kts | 101° |
| 2026-04-25 21:08 | 45.47388 | 5.84306 | 30107 ft | 513 kts | 101° |
| 2026-04-25 21:09 | 45.45318 | 5.99266 | 30118 ft | 513 kts | 101° |
| 2026-04-25 21:09 | 45.43926 | 6.09245 | 30102 ft | 513 kts | 101° |
| 2026-04-25 21:10 | 45.42388 | 6.19167 | 30120 ft | 514 kts | 107° |
| 2026-04-25 21:10 | 45.39458 | 6.28373 | 29851 ft | 509 kts | 120° |
| 2026-04-25 21:11 | 45.37608 | 6.32658 | 29564 ft | 508 kts | 123° |
| 2026-04-25 21:11 | 45.35656 | 6.36843 | 29291 ft | 506 kts | 124° |
| 2026-04-25 21:11 | 45.33674 | 6.40967 | 29016 ft | 504 kts | 125° |
| 2026-04-25 21:11 | 45.31695 | 6.45066 | 28739 ft | 502 kts | 124° |
| 2026-04-25 21:12 | 45.29732 | 6.49158 | 28462 ft | 500 kts | 124° |
| 2026-04-25 21:12 | 45.27786 | 6.53247 | 28207 ft | 498 kts | 124° |
| 2026-04-25 21:12 | 45.25859 | 6.57322 | 27955 ft | 496 kts | 124° |
| 2026-04-25 21:12 | 45.24589 | 6.60017 | 27772 ft | 495 kts | 124° |
| 2026-04-25 21:13 | 45.22045 | 6.65422 | 27437 ft | 486 kts | 123° |
| 2026-04-25 21:13 | 45.20194 | 6.69355 | 27190 ft | 473 kts | 123° |
| 2026-04-25 21:13 | 45.18392 | 6.73180 | 26945 ft | 461 kts | 123° |
| 2026-04-25 21:13 | 45.16634 | 6.76903 | 26718 ft | 448 kts | 123° |
| 2026-04-25 21:14 | 45.14921 | 6.80524 | 26496 ft | 437 kts | 123° |
| 2026-04-25 21:14 | 45.13270 | 6.84010 | 26268 ft | 426 kts | 123° |
| 2026-04-25 21:14 | 45.11640 | 6.87448 | 26083 ft | 415 kts | 123° |
| 2026-04-25 21:14 | 45.10049 | 6.90800 | 25864 ft | 405 kts | 123° |
| 2026-04-25 21:15 | 45.08493 | 6.94072 | 25630 ft | 396 kts | 123° |
| 2026-04-25 21:15 | 45.06964 | 6.97286 | 25410 ft | 393 kts | 123° |
| 2026-04-25 21:15 | 45.05437 | 7.00491 | 25194 ft | 394 kts | 123° |
| 2026-04-25 21:15 | 45.03911 | 7.03692 | 25156 ft | 388 kts | 123° |
| 2026-04-25 21:16 | 45.02424 | 7.06810 | 25150 ft | 379 kts | 123° |
| 2026-04-25 21:16 | 45.00952 | 7.09893 | 25155 ft | 377 kts | 123° |
| 2026-04-25 21:16 | 44.99484 | 7.12965 | 25077 ft | 377 kts | 123° |
| 2026-04-25 21:16 | 44.98018 | 7.16030 | 25070 ft | 377 kts | 123° |
| 2026-04-25 21:17 | 44.96547 | 7.19101 | 25077 ft | 377 kts | 123° |
| 2026-04-25 21:17 | 44.95085 | 7.22166 | 25060 ft | 377 kts | 123° |
| 2026-04-25 21:17 | 44.93624 | 7.25237 | 24975 ft | 376 kts | 123° |
| 2026-04-25 21:17 | 44.92165 | 7.28302 | 24493 ft | 376 kts | 123° |
| 2026-04-25 21:18 | 44.90711 | 7.31346 | 24147 ft | 373 kts | 123° |
| 2026-04-25 21:18 | 44.89266 | 7.34363 | 23750 ft | 370 kts | 123° |
| 2026-04-25 21:18 | 44.87828 | 7.37357 | 23311 ft | 368 kts | 123° |
| 2026-04-25 21:18 | 44.86397 | 7.40330 | 22831 ft | 366 kts | 123° |
| 2026-04-25 21:19 | 44.84971 | 7.43285 | 22362 ft | 364 kts | 123° |
| 2026-04-25 21:19 | 44.83550 | 7.46223 | 21914 ft | 362 kts | 123° |
| 2026-04-25 21:19 | 44.82139 | 7.49138 | 21466 ft | 360 kts | 123° |
| 2026-04-25 21:19 | 44.80900 | 7.52179 | 20995 ft | 356 kts | 112° |
| 2026-04-25 21:20 | 44.80198 | 7.55490 | 20542 ft | 351 kts | 96° |
| 2026-04-25 21:20 | 44.80120 | 7.56599 | 20400 ft | 350 kts | 90° |
| 2026-04-25 21:20 | 44.80997 | 7.61988 | 19674 ft | 338 kts | 57° |
| 2026-04-25 21:20 | 44.82444 | 7.64520 | 19259 ft | 330 kts | 38° |
| 2026-04-25 21:21 | 44.84374 | 7.66166 | 18870 ft | 322 kts | 19° |
| 2026-04-25 21:21 | 44.86510 | 7.67055 | 18477 ft | 319 kts | 15° |
| 2026-04-25 21:21 | 44.88456 | 7.68533 | 18003 ft | 321 kts | 38° |
| 2026-04-25 21:21 | 44.89952 | 7.70875 | 17562 ft | 322 kts | 50° |
| 2026-04-25 21:22 | 44.91136 | 7.73551 | 17114 ft | 323 kts | 62° |
| 2026-04-25 21:22 | 44.91777 | 7.76581 | 16694 ft | 324 kts | 78° |
| 2026-04-25 21:22 | 44.92049 | 7.79731 | 16290 ft | 322 kts | 82° |
| 2026-04-25 21:22 | 44.92229 | 7.82865 | 16073 ft | 320 kts | 83° |
| 2026-04-25 21:23 | 44.92387 | 7.86015 | 15735 ft | 324 kts | 83° |
| 2026-04-25 21:23 | 44.92534 | 7.89172 | 15385 ft | 320 kts | 84° |
| 2026-04-25 21:23 | 44.92670 | 7.92276 | 15061 ft | 314 kts | 84° |
| 2026-04-25 21:23 | 44.92804 | 7.95362 | 14510 ft | 318 kts | 84° |
| 2026-04-25 21:24 | 44.92937 | 7.98478 | 14025 ft | 318 kts | 84° |
| 2026-04-25 21:24 | 44.93067 | 8.01579 | 13619 ft | 315 kts | 84° |
| 2026-04-25 21:24 | 44.93194 | 8.04652 | 13160 ft | 313 kts | 84° |
| 2026-04-25 21:24 | 44.93321 | 8.07708 | 12671 ft | 311 kts | 85° |
| 2026-04-25 21:25 | 44.93445 | 8.10749 | 12220 ft | 309 kts | 85° |
| 2026-04-25 21:25 | 44.93568 | 8.13767 | 11773 ft | 307 kts | 85° |
| 2026-04-25 21:25 | 44.93896 | 8.16718 | 11315 ft | 303 kts | 73° |
| 2026-04-25 21:25 | 44.94656 | 8.19473 | 10872 ft | 300 kts | 64° |
| 2026-04-25 21:26 | 44.95568 | 8.22109 | 10437 ft | 298 kts | 62° |
| 2026-04-25 21:26 | 44.96509 | 8.24708 | 10124 ft | 296 kts | 62° |
| 2026-04-25 21:26 | 44.97456 | 8.27291 | 10055 ft | 297 kts | 62° |
| 2026-04-25 21:26 | 44.98410 | 8.29880 | 10052 ft | 297 kts | 62° |
| 2026-04-25 21:27 | 44.99351 | 8.32427 | 10045 ft | 296 kts | 62° |
| 2026-04-25 21:27 | 45.00307 | 8.35012 | 9626 ft | 298 kts | 62° |
| 2026-04-25 21:27 | 45.01262 | 8.37596 | 9163 ft | 295 kts | 62° |
| 2026-04-25 21:27 | 45.02209 | 8.40161 | 8719 ft | 293 kts | 62° |
| 2026-04-25 21:28 | 45.03151 | 8.42710 | 8261 ft | 292 kts | 62° |
| 2026-04-25 21:28 | 45.04086 | 8.45246 | 7811 ft | 290 kts | 61° |
| 2026-04-25 21:28 | 45.05015 | 8.47769 | 7379 ft | 288 kts | 61° |
| 2026-04-25 21:28 | 45.05938 | 8.50274 | 6921 ft | 287 kts | 61° |
| 2026-04-25 21:29 | 45.06945 | 8.52676 | 6586 ft | 280 kts | 52° |
| 2026-04-25 21:29 | 45.08326 | 8.54508 | 6436 ft | 270 kts | 31° |
| 2026-04-25 21:29 | 45.10033 | 8.55556 | 6318 ft | 268 kts | 11° |
| 2026-04-25 21:29 | 45.11886 | 8.55574 | 6207 ft | 267 kts | 352° |
| 2026-04-25 21:30 | 45.13723 | 8.55136 | 6062 ft | 268 kts | 349° |
| 2026-04-25 21:30 | 45.15553 | 8.54630 | 5943 ft | 268 kts | 349° |
| 2026-04-25 21:30 | 45.17377 | 8.54119 | 5693 ft | 267 kts | 349° |
| 2026-04-25 21:30 | 45.18575 | 8.53783 | 5617 ft | 263 kts | 349° |
| 2026-04-25 21:31 | 45.20324 | 8.53293 | 5513 ft | 249 kts | 349° |
| 2026-04-25 21:31 | 45.21985 | 8.52830 | 5382 ft | 238 kts | 349° |
| 2026-04-25 21:31 | 45.23591 | 8.52387 | 5278 ft | 233 kts | 349° |
| 2026-04-25 21:31 | 45.25184 | 8.51944 | 5098 ft | 233 kts | 349° |
| 2026-04-25 21:32 | 45.26778 | 8.51500 | 4960 ft | 234 kts | 349° |
| 2026-04-25 21:32 | 45.28379 | 8.51055 | 4838 ft | 235 kts | 349° |
| 2026-04-25 21:32 | 45.30003 | 8.50791 | 4706 ft | 235 kts | 1° |
| 2026-04-25 21:32 | 45.31582 | 8.51325 | 4574 ft | 235 kts | 26° |
| 2026-04-25 21:33 | 45.32841 | 8.52777 | 4457 ft | 236 kts | 52° |
| 2026-04-25 21:33 | 45.33548 | 8.54863 | 4326 ft | 236 kts | 74° |
| 2026-04-25 21:33 | 45.33896 | 8.57139 | 4211 ft | 236 kts | 78° |
| 2026-04-25 21:33 | 45.34188 | 8.59437 | 4032 ft | 237 kts | 79° |
| 2026-04-25 21:34 | 45.34474 | 8.61745 | 3681 ft | 237 kts | 79° |
| 2026-04-25 21:34 | 45.34758 | 8.64035 | 3381 ft | 234 kts | 79° |
| 2026-04-25 21:34 | 45.35045 | 8.66310 | 3055 ft | 233 kts | 79° |
| 2026-04-25 21:34 | 45.35331 | 8.68577 | 2724 ft | 233 kts | 79° |
| 2026-04-25 21:35 | 45.35619 | 8.70828 | 2513 ft | 231 kts | 79° |
| 2026-04-25 21:35 | 45.36181 | 8.72959 | 2490 ft | 231 kts | 54° |
| 2026-04-25 21:35 | 45.37357 | 8.74403 | 2494 ft | 222 kts | 28° |
| 2026-04-25 21:35 | 45.38732 | 8.75381 | 2495 ft | 221 kts | 24° |
| 2026-04-25 21:36 | 45.40115 | 8.76267 | 2496 ft | 220 kts | 24° |
| 2026-04-25 21:36 | 45.41529 | 8.77161 | 2504 ft | 219 kts | 23° |
| 2026-04-25 21:36 | 45.42907 | 8.78034 | 2490 ft | 220 kts | 23° |
| 2026-04-25 21:36 | 45.44340 | 8.78804 | 2487 ft | 221 kts | 10° |
| 2026-04-25 21:37 | 45.45871 | 8.78829 | 2489 ft | 221 kts | 352° |
| 2026-04-25 21:37 | 45.46895 | 8.78609 | 2486 ft | 218 kts | 349° |
| 2026-04-25 21:37 | 45.48713 | 8.77989 | 2469 ft | 193 kts | 338° |
| 2026-04-25 21:37 | 45.49956 | 8.77348 | 2406 ft | 189 kts | 339° |
| 2026-04-25 21:38 | 45.51201 | 8.76751 | 2300 ft | 188 kts | 341° |
| 2026-04-25 21:38 | 45.52473 | 8.76259 | 2112 ft | 189 kts | 345° |
| 2026-04-25 21:38 | 45.53759 | 8.75862 | 1927 ft | 190 kts | 347° |
| 2026-04-25 21:38 | 45.55061 | 8.75504 | 1779 ft | 192 kts | 347° |
| 2026-04-25 21:39 | 45.56375 | 8.75165 | 1670 ft | 192 kts | 348° |
| 2026-04-25 21:39 | 45.57672 | 8.74845 | 1422 ft | 186 kts | 348° |
| 2026-04-25 21:39 | 45.58886 | 8.74501 | 1224 ft | 170 kts | 346° |
| 2026-04-25 21:39 | 45.60003 | 8.74167 | 1022 ft | 158 kts | 349° |
| 2026-04-25 21:40 | 45.61052 | 8.73897 | 830 ft | 148 kts | 349° |
| 2026-04-25 21:40 | 45.62047 | 8.73614 | 723 ft | 142 kts | 348° |
| 2026-04-25 21:40 | 45.62841 | 8.73400 | 736 ft | 78 kts | 349° |
| 2026-04-25 21:40 | 45.63116 | 8.73301 | 737 ft | 23 kts | 322° |
| 2026-04-25 21:41 | 45.63226 | 8.73142 | 743 ft | 22 kts | 307° |
| 2026-04-25 21:41 | 45.63310 | 8.72966 | 747 ft | 21 kts | 303° |
| 2026-04-25 21:41 | 45.63362 | 8.72853 | 745 ft | 0 kts | 303° |
| 2026-04-25 21:41 | 45.63363 | 8.72852 | 745 ft | 1 kts | 303° |
| 2026-04-25 21:42 | 45.63378 | 8.72820 | 746 ft | 7 kts | 303° |
| 2026-04-25 21:42 | 45.63402 | 8.72735 | 748 ft | 12 kts | 283° |
| 2026-04-25 21:42 | 45.63405 | 8.72595 | 752 ft | 16 kts | 263° |
| 2026-04-25 21:42 | 45.63381 | 8.72422 | 751 ft | 20 kts | 259° |
| 2026-04-25 21:43 | 45.63352 | 8.72205 | 754 ft | 23 kts | 259° |
| 2026-04-25 21:43 | 45.63332 | 8.72060 | 751 ft | 9 kts | 259° |
| 2026-04-25 21:43 | 45.63331 | 8.72049 | 750 ft | 1 kts | 259° |
| 2026-04-25 21:43 | 45.63329 | 8.72039 | 751 ft | 0 kts | 258° |
| 2026-04-25 21:44 | 45.63327 | 8.72022 | 751 ft | 0 kts | 258° |
| 2026-04-25 21:44 | 45.63318 | 8.71993 | 752 ft | 6 kts | 237° |
| 2026-04-25 21:45 | 45.63261 | 8.71974 | 750 ft | 11 kts | 173° |
| 2026-04-25 21:45 | 45.63198 | 8.71991 | 749 ft | 16 kts | 169° |
| 2026-04-25 21:45 | 45.63054 | 8.72024 | 747 ft | 12 kts | 180° |
| 2026-04-25 21:45 | 45.63014 | 8.72006 | 745 ft | 3 kts | 212° |
| 2026-04-25 21:46 | 45.62999 | 8.71968 | 745 ft | 4 kts | 267° |
| 2026-04-25 21:46 | 45.63015 | 8.71922 | 746 ft | 6 kts | 312° |
| 2026-04-25 21:46 | 45.63043 | 8.71919 | 745 ft | 6 kts | 356° |
| 2026-04-25 21:46 | 45.63106 | 8.71905 | 748 ft | 12 kts | 349° |
| 2026-04-25 21:47 | 45.63207 | 8.71880 | 751 ft | 17 kts | 351° |
| 2026-04-25 21:47 | 45.63243 | 8.71871 | 751 ft | 2 kts | 349° |
| 2026-04-25 21:47 | 45.63275 | 8.71857 | 748 ft | 8 kts | 335° |
| 2026-04-25 21:47 | 45.63299 | 8.71796 | 750 ft | 6 kts | 269° |
| 2026-04-25 21:48 | 45.63285 | 8.71714 | 750 ft | 11 kts | 257° |
| 2026-04-25 21:48 | 45.63264 | 8.71579 | 751 ft | 12 kts | 257° |
| 2026-04-25 21:48 | 45.63226 | 8.71490 | 750 ft | 10 kts | 209° |
| 2026-04-25 21:48 | 45.63186 | 8.71462 | 749 ft | 0 kts | 201° |
| 2026-04-25 21:51 | 45.63154 | 8.71422 | 747 ft | 0 kts | 214° |